<?xml version="1.0" encoding="UTF-8" standalone="no" ?>
<gpx xmlns="http://www.topografix.com/GPX/1/1" xmlns:xsi="http://www.w3.org/2001/XMLSchema-instance" xsi:schemaLocation="http://www.topografix.com/GPX/1/1 http://www.topografix.com/GPX/1/1/gpx.xsd" version="1.1" creator="VisuGPX - https://www.visugpx.com">
  <metadata>
    <name>Route 40km</name>
    <desc><![CDATA[Rando route 40km pour visualisation]]></desc>
  </metadata>
  <trk>
    <name><![CDATA[9362935-parcours de 40]]></name>
    <trkseg>
      <trkpt lat="50.56557" lon="2.62204">
        <ele>43</ele>
        <time>2018-12-05T23:00:41Z</time>
      </trkpt>
      <trkpt lat="50.56553" lon="2.622">
        <ele>43</ele>
        <time>2018-12-05T23:01:41Z</time>
      </trkpt>
      <trkpt lat="50.56541" lon="2.62201">
        <ele>43</ele>
        <time>2018-12-05T23:02:41Z</time>
      </trkpt>
      <trkpt lat="50.56538" lon="2.62178">
        <ele>43</ele>
        <time>2018-12-05T23:03:41Z</time>
      </trkpt>
      <trkpt lat="50.56527" lon="2.62182">
        <ele>43</ele>
        <time>2018-12-05T23:04:41Z</time>
      </trkpt>
      <trkpt lat="50.56485" lon="2.62191">
        <ele>44</ele>
        <time>2018-12-05T23:05:41Z</time>
      </trkpt>
      <trkpt lat="50.5649" lon="2.62062">
        <ele>45</ele>
        <time>2018-12-05T23:06:41Z</time>
      </trkpt>
      <trkpt lat="50.565" lon="2.61963">
        <ele>46</ele>
        <time>2018-12-05T23:07:41Z</time>
      </trkpt>
      <trkpt lat="50.56503" lon="2.61875">
        <ele>46</ele>
        <time>2018-12-05T23:08:41Z</time>
      </trkpt>
      <trkpt lat="50.56511" lon="2.61807">
        <ele>46</ele>
        <time>2018-12-05T23:09:41Z</time>
      </trkpt>
      <trkpt lat="50.56516" lon="2.61443">
        <ele>45</ele>
        <time>2018-12-05T23:10:41Z</time>
      </trkpt>
      <trkpt lat="50.56523" lon="2.61398">
        <ele>45</ele>
        <time>2018-12-05T23:11:41Z</time>
      </trkpt>
      <trkpt lat="50.56549" lon="2.61179">
        <ele>45</ele>
        <time>2018-12-05T23:12:41Z</time>
      </trkpt>
      <trkpt lat="50.56547" lon="2.61036">
        <ele>44</ele>
        <time>2018-12-05T23:13:41Z</time>
      </trkpt>
      <trkpt lat="50.56567" lon="2.60918">
        <ele>43</ele>
        <time>2018-12-05T23:14:41Z</time>
      </trkpt>
      <trkpt lat="50.56591" lon="2.6081">
        <ele>43</ele>
        <time>2018-12-05T23:15:41Z</time>
      </trkpt>
      <trkpt lat="50.56595" lon="2.60773">
        <ele>42</ele>
        <time>2018-12-05T23:16:41Z</time>
      </trkpt>
      <trkpt lat="50.56595" lon="2.6075">
        <ele>42</ele>
        <time>2018-12-05T23:17:41Z</time>
      </trkpt>
      <trkpt lat="50.56591" lon="2.60731">
        <ele>41</ele>
        <time>2018-12-05T23:18:41Z</time>
      </trkpt>
      <trkpt lat="50.56583" lon="2.60707">
        <ele>41</ele>
        <time>2018-12-05T23:19:41Z</time>
      </trkpt>
      <trkpt lat="50.56568" lon="2.60681">
        <ele>40</ele>
        <time>2018-12-05T23:20:41Z</time>
      </trkpt>
      <trkpt lat="50.56481" lon="2.60591">
        <ele>38</ele>
        <time>2018-12-05T23:21:41Z</time>
      </trkpt>
      <trkpt lat="50.56462" lon="2.60563">
        <ele>38</ele>
        <time>2018-12-05T23:22:41Z</time>
      </trkpt>
      <trkpt lat="50.56435" lon="2.60502">
        <ele>37</ele>
        <time>2018-12-05T23:23:41Z</time>
      </trkpt>
      <trkpt lat="50.56422" lon="2.60485">
        <ele>37</ele>
        <time>2018-12-05T23:24:41Z</time>
      </trkpt>
      <trkpt lat="50.56401" lon="2.60468">
        <ele>37</ele>
        <time>2018-12-05T23:25:41Z</time>
      </trkpt>
      <trkpt lat="50.56369" lon="2.6043">
        <ele>37</ele>
        <time>2018-12-05T23:26:41Z</time>
      </trkpt>
      <trkpt lat="50.56297" lon="2.60394">
        <ele>36</ele>
        <time>2018-12-05T23:27:41Z</time>
      </trkpt>
      <trkpt lat="50.56276" lon="2.60372">
        <ele>34</ele>
        <time>2018-12-05T23:28:41Z</time>
      </trkpt>
      <trkpt lat="50.5627" lon="2.60355">
        <ele>33</ele>
        <time>2018-12-05T23:29:41Z</time>
      </trkpt>
      <trkpt lat="50.56266" lon="2.60333">
        <ele>33</ele>
        <time>2018-12-05T23:30:41Z</time>
      </trkpt>
      <trkpt lat="50.56257" lon="2.60337">
        <ele>32</ele>
        <time>2018-12-05T23:31:41Z</time>
      </trkpt>
      <trkpt lat="50.56241" lon="2.60311">
        <ele>31</ele>
        <time>2018-12-05T23:32:41Z</time>
      </trkpt>
      <trkpt lat="50.56187" lon="2.60252">
        <ele>29</ele>
        <time>2018-12-05T23:33:41Z</time>
      </trkpt>
      <trkpt lat="50.56176" lon="2.60234">
        <ele>28</ele>
        <time>2018-12-05T23:34:41Z</time>
      </trkpt>
      <trkpt lat="50.56125" lon="2.60097">
        <ele>26</ele>
        <time>2018-12-05T23:35:41Z</time>
      </trkpt>
      <trkpt lat="50.56107" lon="2.6006">
        <ele>26</ele>
        <time>2018-12-05T23:36:41Z</time>
      </trkpt>
      <trkpt lat="50.56107" lon="2.6006">
        <ele>26</ele>
        <time>2018-12-05T23:37:41Z</time>
      </trkpt>
      <trkpt lat="50.56087" lon="2.60019">
        <ele>26</ele>
        <time>2018-12-05T23:38:41Z</time>
      </trkpt>
      <trkpt lat="50.56061" lon="2.59954">
        <ele>26</ele>
        <time>2018-12-05T23:39:41Z</time>
      </trkpt>
      <trkpt lat="50.56021" lon="2.5981">
        <ele>23</ele>
        <time>2018-12-05T23:40:41Z</time>
      </trkpt>
      <trkpt lat="50.55871" lon="2.59418">
        <ele>22</ele>
        <time>2018-12-05T23:41:41Z</time>
      </trkpt>
      <trkpt lat="50.55868" lon="2.59401">
        <ele>22</ele>
        <time>2018-12-05T23:42:41Z</time>
      </trkpt>
      <trkpt lat="50.55868" lon="2.59381">
        <ele>22</ele>
        <time>2018-12-05T23:43:41Z</time>
      </trkpt>
      <trkpt lat="50.55847" lon="2.59368">
        <ele>22</ele>
        <time>2018-12-05T23:44:41Z</time>
      </trkpt>
      <trkpt lat="50.55786" lon="2.59339">
        <ele>22</ele>
        <time>2018-12-05T23:45:41Z</time>
      </trkpt>
      <trkpt lat="50.55691" lon="2.59303">
        <ele>22</ele>
        <time>2018-12-05T23:46:41Z</time>
      </trkpt>
      <trkpt lat="50.55556" lon="2.59266">
        <ele>20</ele>
        <time>2018-12-05T23:47:41Z</time>
      </trkpt>
      <trkpt lat="50.55493" lon="2.59264">
        <ele>21</ele>
        <time>2018-12-05T23:48:41Z</time>
      </trkpt>
      <trkpt lat="50.55468" lon="2.59261">
        <ele>20</ele>
        <time>2018-12-05T23:49:41Z</time>
      </trkpt>
      <trkpt lat="50.55443" lon="2.59255">
        <ele>20</ele>
        <time>2018-12-05T23:50:41Z</time>
      </trkpt>
      <trkpt lat="50.55406" lon="2.59241">
        <ele>19</ele>
        <time>2018-12-05T23:51:41Z</time>
      </trkpt>
      <trkpt lat="50.55276" lon="2.59178">
        <ele>20</ele>
        <time>2018-12-05T23:52:41Z</time>
      </trkpt>
      <trkpt lat="50.5523" lon="2.59162">
        <ele>20</ele>
        <time>2018-12-05T23:53:41Z</time>
      </trkpt>
      <trkpt lat="50.55194" lon="2.59144">
        <ele>20</ele>
        <time>2018-12-05T23:54:41Z</time>
      </trkpt>
      <trkpt lat="50.55158" lon="2.59123">
        <ele>20</ele>
        <time>2018-12-05T23:55:41Z</time>
      </trkpt>
      <trkpt lat="50.55126" lon="2.59111">
        <ele>19</ele>
        <time>2018-12-05T23:56:41Z</time>
      </trkpt>
      <trkpt lat="50.55061" lon="2.59119">
        <ele>19</ele>
        <time>2018-12-05T23:57:41Z</time>
      </trkpt>
      <trkpt lat="50.55013" lon="2.59112">
        <ele>20</ele>
        <time>2018-12-05T23:58:41Z</time>
      </trkpt>
      <trkpt lat="50.54984" lon="2.59102">
        <ele>20</ele>
        <time>2018-12-05T23:59:41Z</time>
      </trkpt>
      <trkpt lat="50.54959" lon="2.59089">
        <ele>20</ele>
        <time>2018-12-06T00:00:41Z</time>
      </trkpt>
      <trkpt lat="50.5494" lon="2.59071">
        <ele>20</ele>
        <time>2018-12-06T00:01:41Z</time>
      </trkpt>
      <trkpt lat="50.54912" lon="2.59037">
        <ele>20</ele>
        <time>2018-12-06T00:02:41Z</time>
      </trkpt>
      <trkpt lat="50.54879" lon="2.58976">
        <ele>21</ele>
        <time>2018-12-06T00:03:41Z</time>
      </trkpt>
      <trkpt lat="50.54778" lon="2.58728">
        <ele>24</ele>
        <time>2018-12-06T00:04:41Z</time>
      </trkpt>
      <trkpt lat="50.5473" lon="2.58603">
        <ele>25</ele>
        <time>2018-12-06T00:05:41Z</time>
      </trkpt>
      <trkpt lat="50.54645" lon="2.58474">
        <ele>26</ele>
        <time>2018-12-06T00:06:41Z</time>
      </trkpt>
      <trkpt lat="50.54636" lon="2.58462">
        <ele>25</ele>
        <time>2018-12-06T00:07:41Z</time>
      </trkpt>
      <trkpt lat="50.54591" lon="2.58417">
        <ele>23</ele>
        <time>2018-12-06T00:08:41Z</time>
      </trkpt>
      <trkpt lat="50.54584" lon="2.58411">
        <ele>23</ele>
        <time>2018-12-06T00:09:41Z</time>
      </trkpt>
      <trkpt lat="50.54378" lon="2.58212">
        <ele>22</ele>
        <time>2018-12-06T00:10:41Z</time>
      </trkpt>
      <trkpt lat="50.54328" lon="2.58149">
        <ele>22</ele>
        <time>2018-12-06T00:11:41Z</time>
      </trkpt>
      <trkpt lat="50.54291" lon="2.5811">
        <ele>22</ele>
        <time>2018-12-06T00:12:41Z</time>
      </trkpt>
      <trkpt lat="50.54217" lon="2.58047">
        <ele>23</ele>
        <time>2018-12-06T00:13:41Z</time>
      </trkpt>
      <trkpt lat="50.54178" lon="2.58006">
        <ele>24</ele>
        <time>2018-12-06T00:14:41Z</time>
      </trkpt>
      <trkpt lat="50.54111" lon="2.57912">
        <ele>25</ele>
        <time>2018-12-06T00:15:41Z</time>
      </trkpt>
      <trkpt lat="50.54041" lon="2.57803">
        <ele>27</ele>
        <time>2018-12-06T00:16:41Z</time>
      </trkpt>
      <trkpt lat="50.54023" lon="2.57778">
        <ele>27</ele>
        <time>2018-12-06T00:17:41Z</time>
      </trkpt>
      <trkpt lat="50.54023" lon="2.57766">
        <ele>27</ele>
        <time>2018-12-06T00:18:41Z</time>
      </trkpt>
      <trkpt lat="50.54005" lon="2.57762">
        <ele>27</ele>
        <time>2018-12-06T00:19:41Z</time>
      </trkpt>
      <trkpt lat="50.5397" lon="2.57751">
        <ele>27</ele>
        <time>2018-12-06T00:20:41Z</time>
      </trkpt>
      <trkpt lat="50.53902" lon="2.57749">
        <ele>28</ele>
        <time>2018-12-06T00:21:41Z</time>
      </trkpt>
      <trkpt lat="50.53795" lon="2.57752">
        <ele>30</ele>
        <time>2018-12-06T00:22:41Z</time>
      </trkpt>
      <trkpt lat="50.5376" lon="2.57764">
        <ele>32</ele>
        <time>2018-12-06T00:23:41Z</time>
      </trkpt>
      <trkpt lat="50.5363" lon="2.57801">
        <ele>32</ele>
        <time>2018-12-06T00:24:41Z</time>
      </trkpt>
      <trkpt lat="50.53602" lon="2.57806">
        <ele>31</ele>
        <time>2018-12-06T00:25:41Z</time>
      </trkpt>
      <trkpt lat="50.5358" lon="2.57801">
        <ele>30</ele>
        <time>2018-12-06T00:26:41Z</time>
      </trkpt>
      <trkpt lat="50.5358" lon="2.57801">
        <ele>30</ele>
        <time>2018-12-06T00:27:41Z</time>
      </trkpt>
      <trkpt lat="50.53508" lon="2.5777">
        <ele>29</ele>
        <time>2018-12-06T00:28:41Z</time>
      </trkpt>
      <trkpt lat="50.53492" lon="2.57765">
        <ele>29</ele>
        <time>2018-12-06T00:29:41Z</time>
      </trkpt>
      <trkpt lat="50.53462" lon="2.57838">
        <ele>29</ele>
        <time>2018-12-06T00:30:41Z</time>
      </trkpt>
      <trkpt lat="50.53113" lon="2.58522">
        <ele>32</ele>
        <time>2018-12-06T00:31:41Z</time>
      </trkpt>
      <trkpt lat="50.531" lon="2.58544">
        <ele>32</ele>
        <time>2018-12-06T00:32:41Z</time>
      </trkpt>
      <trkpt lat="50.53091" lon="2.58551">
        <ele>32</ele>
        <time>2018-12-06T00:33:41Z</time>
      </trkpt>
      <trkpt lat="50.53071" lon="2.5856">
        <ele>32</ele>
        <time>2018-12-06T00:34:41Z</time>
      </trkpt>
      <trkpt lat="50.53065" lon="2.58565">
        <ele>32</ele>
        <time>2018-12-06T00:35:41Z</time>
      </trkpt>
      <trkpt lat="50.53045" lon="2.58616">
        <ele>32</ele>
        <time>2018-12-06T00:36:41Z</time>
      </trkpt>
      <trkpt lat="50.53038" lon="2.5863">
        <ele>33</ele>
        <time>2018-12-06T00:37:41Z</time>
      </trkpt>
      <trkpt lat="50.5302" lon="2.58656">
        <ele>33</ele>
        <time>2018-12-06T00:38:41Z</time>
      </trkpt>
      <trkpt lat="50.53007" lon="2.58667">
        <ele>33</ele>
        <time>2018-12-06T00:39:41Z</time>
      </trkpt>
      <trkpt lat="50.52994" lon="2.58671">
        <ele>33</ele>
        <time>2018-12-06T00:40:41Z</time>
      </trkpt>
      <trkpt lat="50.52983" lon="2.58668">
        <ele>33</ele>
        <time>2018-12-06T00:41:41Z</time>
      </trkpt>
      <trkpt lat="50.52971" lon="2.5866">
        <ele>33</ele>
        <time>2018-12-06T00:42:41Z</time>
      </trkpt>
      <trkpt lat="50.52942" lon="2.58633">
        <ele>32</ele>
        <time>2018-12-06T00:43:41Z</time>
      </trkpt>
      <trkpt lat="50.5293" lon="2.58625">
        <ele>32</ele>
        <time>2018-12-06T00:44:41Z</time>
      </trkpt>
      <trkpt lat="50.52908" lon="2.58618">
        <ele>31</ele>
        <time>2018-12-06T00:45:41Z</time>
      </trkpt>
      <trkpt lat="50.52885" lon="2.58614">
        <ele>32</ele>
        <time>2018-12-06T00:46:41Z</time>
      </trkpt>
      <trkpt lat="50.52873" lon="2.58614">
        <ele>32</ele>
        <time>2018-12-06T00:47:41Z</time>
      </trkpt>
      <trkpt lat="50.52863" lon="2.58619">
        <ele>32</ele>
        <time>2018-12-06T00:48:41Z</time>
      </trkpt>
      <trkpt lat="50.52852" lon="2.58631">
        <ele>32</ele>
        <time>2018-12-06T00:49:41Z</time>
      </trkpt>
      <trkpt lat="50.52845" lon="2.58646">
        <ele>32</ele>
        <time>2018-12-06T00:50:41Z</time>
      </trkpt>
      <trkpt lat="50.52825" lon="2.58707">
        <ele>34</ele>
        <time>2018-12-06T00:51:41Z</time>
      </trkpt>
      <trkpt lat="50.52805" lon="2.5875">
        <ele>34</ele>
        <time>2018-12-06T00:52:41Z</time>
      </trkpt>
      <trkpt lat="50.5278" lon="2.58788">
        <ele>34</ele>
        <time>2018-12-06T00:53:41Z</time>
      </trkpt>
      <trkpt lat="50.52734" lon="2.58838">
        <ele>35</ele>
        <time>2018-12-06T00:54:41Z</time>
      </trkpt>
      <trkpt lat="50.52663" lon="2.58928">
        <ele>36</ele>
        <time>2018-12-06T00:55:41Z</time>
      </trkpt>
      <trkpt lat="50.52665" lon="2.58933">
        <ele>37</ele>
        <time>2018-12-06T00:56:41Z</time>
      </trkpt>
      <trkpt lat="50.52513" lon="2.59125">
        <ele>44</ele>
        <time>2018-12-06T00:57:41Z</time>
      </trkpt>
      <trkpt lat="50.52467" lon="2.59175">
        <ele>44</ele>
        <time>2018-12-06T00:58:41Z</time>
      </trkpt>
      <trkpt lat="50.52423" lon="2.59215">
        <ele>44</ele>
        <time>2018-12-06T00:59:41Z</time>
      </trkpt>
      <trkpt lat="50.52383" lon="2.59246">
        <ele>43</ele>
        <time>2018-12-06T01:00:41Z</time>
      </trkpt>
      <trkpt lat="50.52341" lon="2.59271">
        <ele>43</ele>
        <time>2018-12-06T01:01:41Z</time>
      </trkpt>
      <trkpt lat="50.5215" lon="2.59369">
        <ele>40</ele>
        <time>2018-12-06T01:02:41Z</time>
      </trkpt>
      <trkpt lat="50.52065" lon="2.59394">
        <ele>40</ele>
        <time>2018-12-06T01:03:41Z</time>
      </trkpt>
      <trkpt lat="50.52034" lon="2.59409">
        <ele>40</ele>
        <time>2018-12-06T01:04:41Z</time>
      </trkpt>
      <trkpt lat="50.51946" lon="2.59462">
        <ele>38</ele>
        <time>2018-12-06T01:05:41Z</time>
      </trkpt>
      <trkpt lat="50.51896" lon="2.59511">
        <ele>38</ele>
        <time>2018-12-06T01:06:41Z</time>
      </trkpt>
      <trkpt lat="50.51877" lon="2.59532">
        <ele>37</ele>
        <time>2018-12-06T01:07:41Z</time>
      </trkpt>
      <trkpt lat="50.51853" lon="2.59572">
        <ele>36</ele>
        <time>2018-12-06T01:08:41Z</time>
      </trkpt>
      <trkpt lat="50.51845" lon="2.59591">
        <ele>36</ele>
        <time>2018-12-06T01:09:41Z</time>
      </trkpt>
      <trkpt lat="50.51803" lon="2.59732">
        <ele>34</ele>
        <time>2018-12-06T01:10:41Z</time>
      </trkpt>
      <trkpt lat="50.51797" lon="2.59758">
        <ele>33</ele>
        <time>2018-12-06T01:11:41Z</time>
      </trkpt>
      <trkpt lat="50.51785" lon="2.59735">
        <ele>33</ele>
        <time>2018-12-06T01:12:41Z</time>
      </trkpt>
      <trkpt lat="50.5177" lon="2.59698">
        <ele>33</ele>
        <time>2018-12-06T01:13:41Z</time>
      </trkpt>
      <trkpt lat="50.51761" lon="2.59662">
        <ele>33</ele>
        <time>2018-12-06T01:14:41Z</time>
      </trkpt>
      <trkpt lat="50.51756" lon="2.59619">
        <ele>33</ele>
        <time>2018-12-06T01:15:41Z</time>
      </trkpt>
      <trkpt lat="50.51752" lon="2.59602">
        <ele>34</ele>
        <time>2018-12-06T01:16:41Z</time>
      </trkpt>
      <trkpt lat="50.51745" lon="2.5959">
        <ele>34</ele>
        <time>2018-12-06T01:17:41Z</time>
      </trkpt>
      <trkpt lat="50.51726" lon="2.59568">
        <ele>34</ele>
        <time>2018-12-06T01:18:41Z</time>
      </trkpt>
      <trkpt lat="50.51698" lon="2.59548">
        <ele>33</ele>
        <time>2018-12-06T01:19:41Z</time>
      </trkpt>
      <trkpt lat="50.51685" lon="2.59534">
        <ele>33</ele>
        <time>2018-12-06T01:20:41Z</time>
      </trkpt>
      <trkpt lat="50.51672" lon="2.59516">
        <ele>33</ele>
        <time>2018-12-06T01:21:41Z</time>
      </trkpt>
      <trkpt lat="50.51564" lon="2.59348">
        <ele>31</ele>
        <time>2018-12-06T01:22:41Z</time>
      </trkpt>
      <trkpt lat="50.51485" lon="2.59232">
        <ele>32</ele>
        <time>2018-12-06T01:23:41Z</time>
      </trkpt>
      <trkpt lat="50.51424" lon="2.59137">
        <ele>28</ele>
        <time>2018-12-06T01:24:41Z</time>
      </trkpt>
      <trkpt lat="50.51417" lon="2.59121">
        <ele>28</ele>
        <time>2018-12-06T01:25:41Z</time>
      </trkpt>
      <trkpt lat="50.51394" lon="2.59049">
        <ele>29</ele>
        <time>2018-12-06T01:26:41Z</time>
      </trkpt>
      <trkpt lat="50.51383" lon="2.59024">
        <ele>30</ele>
        <time>2018-12-06T01:27:41Z</time>
      </trkpt>
      <trkpt lat="50.51371" lon="2.59009">
        <ele>30</ele>
        <time>2018-12-06T01:28:41Z</time>
      </trkpt>
      <trkpt lat="50.51351" lon="2.58992">
        <ele>30</ele>
        <time>2018-12-06T01:29:41Z</time>
      </trkpt>
      <trkpt lat="50.513" lon="2.58965">
        <ele>29</ele>
        <time>2018-12-06T01:30:41Z</time>
      </trkpt>
      <trkpt lat="50.51287" lon="2.58953">
        <ele>29</ele>
        <time>2018-12-06T01:31:41Z</time>
      </trkpt>
      <trkpt lat="50.51263" lon="2.58923">
        <ele>29</ele>
        <time>2018-12-06T01:32:41Z</time>
      </trkpt>
      <trkpt lat="50.51243" lon="2.58896">
        <ele>28</ele>
        <time>2018-12-06T01:33:41Z</time>
      </trkpt>
      <trkpt lat="50.51235" lon="2.58879">
        <ele>29</ele>
        <time>2018-12-06T01:34:41Z</time>
      </trkpt>
      <trkpt lat="50.51227" lon="2.58859">
        <ele>29</ele>
        <time>2018-12-06T01:35:41Z</time>
      </trkpt>
      <trkpt lat="50.51223" lon="2.5884">
        <ele>29</ele>
        <time>2018-12-06T01:36:41Z</time>
      </trkpt>
      <trkpt lat="50.51217" lon="2.58754">
        <ele>30</ele>
        <time>2018-12-06T01:37:41Z</time>
      </trkpt>
      <trkpt lat="50.5121" lon="2.5871">
        <ele>31</ele>
        <time>2018-12-06T01:38:41Z</time>
      </trkpt>
      <trkpt lat="50.51198" lon="2.58672">
        <ele>30</ele>
        <time>2018-12-06T01:39:41Z</time>
      </trkpt>
      <trkpt lat="50.51169" lon="2.58612">
        <ele>30</ele>
        <time>2018-12-06T01:40:41Z</time>
      </trkpt>
      <trkpt lat="50.51154" lon="2.58596">
        <ele>30</ele>
        <time>2018-12-06T01:41:41Z</time>
      </trkpt>
      <trkpt lat="50.51147" lon="2.58595">
        <ele>30</ele>
        <time>2018-12-06T01:42:41Z</time>
      </trkpt>
      <trkpt lat="50.5114" lon="2.58597">
        <ele>30</ele>
        <time>2018-12-06T01:43:41Z</time>
      </trkpt>
      <trkpt lat="50.5112" lon="2.58616">
        <ele>29</ele>
        <time>2018-12-06T01:44:41Z</time>
      </trkpt>
      <trkpt lat="50.5111" lon="2.5862">
        <ele>29</ele>
        <time>2018-12-06T01:45:41Z</time>
      </trkpt>
      <trkpt lat="50.51106" lon="2.58616">
        <ele>29</ele>
        <time>2018-12-06T01:46:41Z</time>
      </trkpt>
      <trkpt lat="50.51062" lon="2.5852">
        <ele>29</ele>
        <time>2018-12-06T01:47:41Z</time>
      </trkpt>
      <trkpt lat="50.5099" lon="2.58411">
        <ele>29</ele>
        <time>2018-12-06T01:48:41Z</time>
      </trkpt>
      <trkpt lat="50.5097" lon="2.58383">
        <ele>29</ele>
        <time>2018-12-06T01:49:41Z</time>
      </trkpt>
      <trkpt lat="50.50935" lon="2.5834">
        <ele>30</ele>
        <time>2018-12-06T01:50:41Z</time>
      </trkpt>
      <trkpt lat="50.50935" lon="2.5834">
        <ele>30</ele>
        <time>2018-12-06T01:51:41Z</time>
      </trkpt>
      <trkpt lat="50.50925" lon="2.58331">
        <ele>30</ele>
        <time>2018-12-06T01:52:41Z</time>
      </trkpt>
      <trkpt lat="50.50907" lon="2.58332">
        <ele>30</ele>
        <time>2018-12-06T01:53:41Z</time>
      </trkpt>
      <trkpt lat="50.50899" lon="2.58338">
        <ele>30</ele>
        <time>2018-12-06T01:54:41Z</time>
      </trkpt>
      <trkpt lat="50.50875" lon="2.58373">
        <ele>29</ele>
        <time>2018-12-06T01:55:41Z</time>
      </trkpt>
      <trkpt lat="50.50869" lon="2.58385">
        <ele>29</ele>
        <time>2018-12-06T01:56:41Z</time>
      </trkpt>
      <trkpt lat="50.50852" lon="2.58433">
        <ele>29</ele>
        <time>2018-12-06T01:57:41Z</time>
      </trkpt>
      <trkpt lat="50.50846" lon="2.58446">
        <ele>29</ele>
        <time>2018-12-06T01:58:41Z</time>
      </trkpt>
      <trkpt lat="50.50808" lon="2.58504">
        <ele>29</ele>
        <time>2018-12-06T01:59:41Z</time>
      </trkpt>
      <trkpt lat="50.50769" lon="2.58554">
        <ele>29</ele>
        <time>2018-12-06T02:00:41Z</time>
      </trkpt>
      <trkpt lat="50.50758" lon="2.58576">
        <ele>30</ele>
        <time>2018-12-06T02:01:41Z</time>
      </trkpt>
      <trkpt lat="50.50722" lon="2.58661">
        <ele>30</ele>
        <time>2018-12-06T02:02:41Z</time>
      </trkpt>
      <trkpt lat="50.50644" lon="2.58782">
        <ele>31</ele>
        <time>2018-12-06T02:03:41Z</time>
      </trkpt>
      <trkpt lat="50.50617" lon="2.58818">
        <ele>32</ele>
        <time>2018-12-06T02:04:41Z</time>
      </trkpt>
      <trkpt lat="50.50593" lon="2.58846">
        <ele>33</ele>
        <time>2018-12-06T02:05:41Z</time>
      </trkpt>
      <trkpt lat="50.50587" lon="2.58857">
        <ele>34</ele>
        <time>2018-12-06T02:06:41Z</time>
      </trkpt>
      <trkpt lat="50.50587" lon="2.58875">
        <ele>34</ele>
        <time>2018-12-06T02:07:41Z</time>
      </trkpt>
      <trkpt lat="50.50675" lon="2.59124">
        <ele>33</ele>
        <time>2018-12-06T02:08:41Z</time>
      </trkpt>
      <trkpt lat="50.5071" lon="2.59241">
        <ele>33</ele>
        <time>2018-12-06T02:09:41Z</time>
      </trkpt>
      <trkpt lat="50.50478" lon="2.59451">
        <ele>51</ele>
        <time>2018-12-06T02:10:41Z</time>
      </trkpt>
      <trkpt lat="50.50478" lon="2.59451">
        <ele>51</ele>
        <time>2018-12-06T02:11:41Z</time>
      </trkpt>
      <trkpt lat="50.50448" lon="2.59478">
        <ele>54</ele>
        <time>2018-12-06T02:12:41Z</time>
      </trkpt>
      <trkpt lat="50.50457" lon="2.59547">
        <ele>53</ele>
        <time>2018-12-06T02:13:41Z</time>
      </trkpt>
      <trkpt lat="50.5045" lon="2.59568">
        <ele>54</ele>
        <time>2018-12-06T02:14:41Z</time>
      </trkpt>
      <trkpt lat="50.50449" lon="2.59641">
        <ele>54</ele>
        <time>2018-12-06T02:15:41Z</time>
      </trkpt>
      <trkpt lat="50.50439" lon="2.59664">
        <ele>55</ele>
        <time>2018-12-06T02:16:41Z</time>
      </trkpt>
      <trkpt lat="50.50312" lon="2.59632">
        <ele>57</ele>
        <time>2018-12-06T02:17:41Z</time>
      </trkpt>
      <trkpt lat="50.50258" lon="2.59625">
        <ele>57</ele>
        <time>2018-12-06T02:18:41Z</time>
      </trkpt>
      <trkpt lat="50.50242" lon="2.59625">
        <ele>58</ele>
        <time>2018-12-06T02:19:41Z</time>
      </trkpt>
      <trkpt lat="50.50205" lon="2.59677">
        <ele>57</ele>
        <time>2018-12-06T02:20:41Z</time>
      </trkpt>
      <trkpt lat="50.50142" lon="2.59777">
        <ele>54</ele>
        <time>2018-12-06T02:21:41Z</time>
      </trkpt>
      <trkpt lat="50.50135" lon="2.59797">
        <ele>53</ele>
        <time>2018-12-06T02:22:41Z</time>
      </trkpt>
      <trkpt lat="50.50115" lon="2.59822">
        <ele>52</ele>
        <time>2018-12-06T02:23:41Z</time>
      </trkpt>
      <trkpt lat="50.49969" lon="2.59919">
        <ele>40</ele>
        <time>2018-12-06T02:24:41Z</time>
      </trkpt>
      <trkpt lat="50.49952" lon="2.59938">
        <ele>40</ele>
        <time>2018-12-06T02:25:41Z</time>
      </trkpt>
      <trkpt lat="50.49942" lon="2.59961">
        <ele>39</ele>
        <time>2018-12-06T02:26:41Z</time>
      </trkpt>
      <trkpt lat="50.49939" lon="2.59978">
        <ele>39</ele>
        <time>2018-12-06T02:27:41Z</time>
      </trkpt>
      <trkpt lat="50.49937" lon="2.60073">
        <ele>38</ele>
        <time>2018-12-06T02:28:41Z</time>
      </trkpt>
      <trkpt lat="50.49929" lon="2.60114">
        <ele>38</ele>
        <time>2018-12-06T02:29:41Z</time>
      </trkpt>
      <trkpt lat="50.49902" lon="2.60208">
        <ele>36</ele>
        <time>2018-12-06T02:30:41Z</time>
      </trkpt>
      <trkpt lat="50.49881" lon="2.60332">
        <ele>35</ele>
        <time>2018-12-06T02:31:41Z</time>
      </trkpt>
      <trkpt lat="50.49798" lon="2.60692">
        <ele>40</ele>
        <time>2018-12-06T02:32:41Z</time>
      </trkpt>
      <trkpt lat="50.49745" lon="2.60849">
        <ele>42</ele>
        <time>2018-12-06T02:33:41Z</time>
      </trkpt>
      <trkpt lat="50.49736" lon="2.60847">
        <ele>42</ele>
        <time>2018-12-06T02:34:41Z</time>
      </trkpt>
      <trkpt lat="50.49729" lon="2.60853">
        <ele>42</ele>
        <time>2018-12-06T02:35:41Z</time>
      </trkpt>
      <trkpt lat="50.49726" lon="2.6086">
        <ele>43</ele>
        <time>2018-12-06T02:36:41Z</time>
      </trkpt>
      <trkpt lat="50.49724" lon="2.60868">
        <ele>43</ele>
        <time>2018-12-06T02:37:41Z</time>
      </trkpt>
      <trkpt lat="50.49726" lon="2.6088">
        <ele>43</ele>
        <time>2018-12-06T02:38:41Z</time>
      </trkpt>
      <trkpt lat="50.49731" lon="2.60888">
        <ele>43</ele>
        <time>2018-12-06T02:39:41Z</time>
      </trkpt>
      <trkpt lat="50.49738" lon="2.60891">
        <ele>43</ele>
        <time>2018-12-06T02:40:41Z</time>
      </trkpt>
      <trkpt lat="50.49734" lon="2.60897">
        <ele>43</ele>
        <time>2018-12-06T02:41:41Z</time>
      </trkpt>
      <trkpt lat="50.49735" lon="2.60925">
        <ele>43</ele>
        <time>2018-12-06T02:42:41Z</time>
      </trkpt>
      <trkpt lat="50.49735" lon="2.60963">
        <ele>43</ele>
        <time>2018-12-06T02:43:41Z</time>
      </trkpt>
      <trkpt lat="50.49722" lon="2.61116">
        <ele>43</ele>
        <time>2018-12-06T02:44:41Z</time>
      </trkpt>
      <trkpt lat="50.49714" lon="2.61178">
        <ele>42</ele>
        <time>2018-12-06T02:45:41Z</time>
      </trkpt>
      <trkpt lat="50.49704" lon="2.6127">
        <ele>41</ele>
        <time>2018-12-06T02:46:41Z</time>
      </trkpt>
      <trkpt lat="50.49708" lon="2.61361">
        <ele>41</ele>
        <time>2018-12-06T02:47:41Z</time>
      </trkpt>
      <trkpt lat="50.49732" lon="2.61639">
        <ele>37</ele>
        <time>2018-12-06T02:48:41Z</time>
      </trkpt>
      <trkpt lat="50.49748" lon="2.61758">
        <ele>34</ele>
        <time>2018-12-06T02:49:41Z</time>
      </trkpt>
      <trkpt lat="50.49774" lon="2.61864">
        <ele>34</ele>
        <time>2018-12-06T02:50:41Z</time>
      </trkpt>
      <trkpt lat="50.49844" lon="2.62085">
        <ele>36</ele>
        <time>2018-12-06T02:51:41Z</time>
      </trkpt>
      <trkpt lat="50.49849" lon="2.6211">
        <ele>37</ele>
        <time>2018-12-06T02:52:41Z</time>
      </trkpt>
      <trkpt lat="50.49857" lon="2.62153">
        <ele>38</ele>
        <time>2018-12-06T02:53:41Z</time>
      </trkpt>
      <trkpt lat="50.49865" lon="2.6224">
        <ele>40</ele>
        <time>2018-12-06T02:54:41Z</time>
      </trkpt>
      <trkpt lat="50.49878" lon="2.6234">
        <ele>41</ele>
        <time>2018-12-06T02:55:41Z</time>
      </trkpt>
      <trkpt lat="50.49896" lon="2.62374">
        <ele>42</ele>
        <time>2018-12-06T02:56:41Z</time>
      </trkpt>
      <trkpt lat="50.49917" lon="2.62398">
        <ele>42</ele>
        <time>2018-12-06T02:57:41Z</time>
      </trkpt>
      <trkpt lat="50.49927" lon="2.6242">
        <ele>43</ele>
        <time>2018-12-06T02:58:41Z</time>
      </trkpt>
      <trkpt lat="50.49921" lon="2.62442">
        <ele>43</ele>
        <time>2018-12-06T02:59:41Z</time>
      </trkpt>
      <trkpt lat="50.49914" lon="2.625">
        <ele>43</ele>
        <time>2018-12-06T03:00:41Z</time>
      </trkpt>
      <trkpt lat="50.49916" lon="2.62571">
        <ele>44</ele>
        <time>2018-12-06T03:01:41Z</time>
      </trkpt>
      <trkpt lat="50.49913" lon="2.62593">
        <ele>44</ele>
        <time>2018-12-06T03:02:41Z</time>
      </trkpt>
      <trkpt lat="50.49905" lon="2.62611">
        <ele>45</ele>
        <time>2018-12-06T03:03:41Z</time>
      </trkpt>
      <trkpt lat="50.4989" lon="2.62622">
        <ele>45</ele>
        <time>2018-12-06T03:04:41Z</time>
      </trkpt>
      <trkpt lat="50.49873" lon="2.62627">
        <ele>45</ele>
        <time>2018-12-06T03:05:41Z</time>
      </trkpt>
      <trkpt lat="50.49858" lon="2.62634">
        <ele>45</ele>
        <time>2018-12-06T03:06:41Z</time>
      </trkpt>
      <trkpt lat="50.49837" lon="2.62659">
        <ele>46</ele>
        <time>2018-12-06T03:07:41Z</time>
      </trkpt>
      <trkpt lat="50.49823" lon="2.62687">
        <ele>47</ele>
        <time>2018-12-06T03:08:41Z</time>
      </trkpt>
      <trkpt lat="50.49772" lon="2.62807">
        <ele>51</ele>
        <time>2018-12-06T03:09:41Z</time>
      </trkpt>
      <trkpt lat="50.49747" lon="2.62889">
        <ele>54</ele>
        <time>2018-12-06T03:10:41Z</time>
      </trkpt>
      <trkpt lat="50.49721" lon="2.62981">
        <ele>56</ele>
        <time>2018-12-06T03:11:41Z</time>
      </trkpt>
      <trkpt lat="50.4968" lon="2.63103">
        <ele>51</ele>
        <time>2018-12-06T03:12:41Z</time>
      </trkpt>
      <trkpt lat="50.49538" lon="2.63151">
        <ele>47</ele>
        <time>2018-12-06T03:13:41Z</time>
      </trkpt>
      <trkpt lat="50.49316" lon="2.6322">
        <ele>44</ele>
        <time>2018-12-06T03:14:41Z</time>
      </trkpt>
      <trkpt lat="50.49247" lon="2.6325">
        <ele>42</ele>
        <time>2018-12-06T03:15:41Z</time>
      </trkpt>
      <trkpt lat="50.49211" lon="2.63244">
        <ele>41</ele>
        <time>2018-12-06T03:16:41Z</time>
      </trkpt>
      <trkpt lat="50.49212" lon="2.63236">
        <ele>41</ele>
        <time>2018-12-06T03:17:41Z</time>
      </trkpt>
      <trkpt lat="50.49209" lon="2.63227">
        <ele>41</ele>
        <time>2018-12-06T03:18:41Z</time>
      </trkpt>
      <trkpt lat="50.49204" lon="2.63221">
        <ele>41</ele>
        <time>2018-12-06T03:19:41Z</time>
      </trkpt>
      <trkpt lat="50.49201" lon="2.6322">
        <ele>41</ele>
        <time>2018-12-06T03:20:41Z</time>
      </trkpt>
      <trkpt lat="50.49195" lon="2.63221">
        <ele>40</ele>
        <time>2018-12-06T03:21:41Z</time>
      </trkpt>
      <trkpt lat="50.49191" lon="2.63226">
        <ele>40</ele>
        <time>2018-12-06T03:22:41Z</time>
      </trkpt>
      <trkpt lat="50.49174" lon="2.63196">
        <ele>40</ele>
        <time>2018-12-06T03:23:41Z</time>
      </trkpt>
      <trkpt lat="50.49145" lon="2.63164">
        <ele>40</ele>
        <time>2018-12-06T03:24:41Z</time>
      </trkpt>
      <trkpt lat="50.49117" lon="2.63155">
        <ele>39</ele>
        <time>2018-12-06T03:25:41Z</time>
      </trkpt>
      <trkpt lat="50.49098" lon="2.63153">
        <ele>39</ele>
        <time>2018-12-06T03:26:41Z</time>
      </trkpt>
      <trkpt lat="50.48981" lon="2.63161">
        <ele>37</ele>
        <time>2018-12-06T03:27:41Z</time>
      </trkpt>
      <trkpt lat="50.48954" lon="2.63156">
        <ele>37</ele>
        <time>2018-12-06T03:28:41Z</time>
      </trkpt>
      <trkpt lat="50.48918" lon="2.63143">
        <ele>37</ele>
        <time>2018-12-06T03:29:41Z</time>
      </trkpt>
      <trkpt lat="50.48741" lon="2.63057">
        <ele>38</ele>
        <time>2018-12-06T03:30:41Z</time>
      </trkpt>
      <trkpt lat="50.48716" lon="2.63034">
        <ele>39</ele>
        <time>2018-12-06T03:31:41Z</time>
      </trkpt>
      <trkpt lat="50.48716" lon="2.63034">
        <ele>39</ele>
        <time>2018-12-06T03:32:41Z</time>
      </trkpt>
      <trkpt lat="50.48687" lon="2.63006">
        <ele>40</ele>
        <time>2018-12-06T03:33:41Z</time>
      </trkpt>
      <trkpt lat="50.48589" lon="2.62892">
        <ele>42</ele>
        <time>2018-12-06T03:34:41Z</time>
      </trkpt>
      <trkpt lat="50.48565" lon="2.62857">
        <ele>43</ele>
        <time>2018-12-06T03:35:41Z</time>
      </trkpt>
      <trkpt lat="50.48505" lon="2.62794">
        <ele>46</ele>
        <time>2018-12-06T03:36:41Z</time>
      </trkpt>
      <trkpt lat="50.4844" lon="2.62747">
        <ele>47</ele>
        <time>2018-12-06T03:37:41Z</time>
      </trkpt>
      <trkpt lat="50.48337" lon="2.62643">
        <ele>50</ele>
        <time>2018-12-06T03:38:41Z</time>
      </trkpt>
      <trkpt lat="50.48315" lon="2.6259">
        <ele>52</ele>
        <time>2018-12-06T03:39:41Z</time>
      </trkpt>
      <trkpt lat="50.48292" lon="2.62563">
        <ele>54</ele>
        <time>2018-12-06T03:40:41Z</time>
      </trkpt>
      <trkpt lat="50.48254" lon="2.62489">
        <ele>56</ele>
        <time>2018-12-06T03:41:41Z</time>
      </trkpt>
      <trkpt lat="50.48255" lon="2.62333">
        <ele>58</ele>
        <time>2018-12-06T03:42:41Z</time>
      </trkpt>
      <trkpt lat="50.48176" lon="2.62287">
        <ele>59</ele>
        <time>2018-12-06T03:43:41Z</time>
      </trkpt>
      <trkpt lat="50.48113" lon="2.62259">
        <ele>60</ele>
        <time>2018-12-06T03:44:41Z</time>
      </trkpt>
      <trkpt lat="50.481" lon="2.62262">
        <ele>60</ele>
        <time>2018-12-06T03:45:41Z</time>
      </trkpt>
      <trkpt lat="50.48041" lon="2.62231">
        <ele>59</ele>
        <time>2018-12-06T03:46:41Z</time>
      </trkpt>
      <trkpt lat="50.47885" lon="2.6213">
        <ele>56</ele>
        <time>2018-12-06T03:47:41Z</time>
      </trkpt>
      <trkpt lat="50.47885" lon="2.6213">
        <ele>56</ele>
        <time>2018-12-06T03:48:41Z</time>
      </trkpt>
      <trkpt lat="50.47861" lon="2.62115">
        <ele>55</ele>
        <time>2018-12-06T03:49:41Z</time>
      </trkpt>
      <trkpt lat="50.47849" lon="2.62082">
        <ele>55</ele>
        <time>2018-12-06T03:50:41Z</time>
      </trkpt>
      <trkpt lat="50.47857" lon="2.61885">
        <ele>51</ele>
        <time>2018-12-06T03:51:41Z</time>
      </trkpt>
      <trkpt lat="50.47852" lon="2.61712">
        <ele>50</ele>
        <time>2018-12-06T03:52:41Z</time>
      </trkpt>
      <trkpt lat="50.47859" lon="2.61596">
        <ele>48</ele>
        <time>2018-12-06T03:53:41Z</time>
      </trkpt>
      <trkpt lat="50.47898" lon="2.61414">
        <ele>45</ele>
        <time>2018-12-06T03:54:41Z</time>
      </trkpt>
      <trkpt lat="50.47902" lon="2.61393">
        <ele>45</ele>
        <time>2018-12-06T03:55:41Z</time>
      </trkpt>
      <trkpt lat="50.47895" lon="2.61359">
        <ele>44</ele>
        <time>2018-12-06T03:56:41Z</time>
      </trkpt>
      <trkpt lat="50.4786" lon="2.61252">
        <ele>44</ele>
        <time>2018-12-06T03:57:41Z</time>
      </trkpt>
      <trkpt lat="50.47825" lon="2.61166">
        <ele>44</ele>
        <time>2018-12-06T03:58:41Z</time>
      </trkpt>
      <trkpt lat="50.47638" lon="2.60681">
        <ele>49</ele>
        <time>2018-12-06T03:59:41Z</time>
      </trkpt>
      <trkpt lat="50.47569" lon="2.60509">
        <ele>48</ele>
        <time>2018-12-06T04:00:41Z</time>
      </trkpt>
      <trkpt lat="50.47515" lon="2.60324">
        <ele>48</ele>
        <time>2018-12-06T04:01:41Z</time>
      </trkpt>
      <trkpt lat="50.47357" lon="2.59986">
        <ele>46</ele>
        <time>2018-12-06T04:02:41Z</time>
      </trkpt>
      <trkpt lat="50.47203" lon="2.59676">
        <ele>46</ele>
        <time>2018-12-06T04:03:41Z</time>
      </trkpt>
      <trkpt lat="50.47191" lon="2.59631">
        <ele>47</ele>
        <time>2018-12-06T04:04:41Z</time>
      </trkpt>
      <trkpt lat="50.47187" lon="2.59609">
        <ele>47</ele>
        <time>2018-12-06T04:05:41Z</time>
      </trkpt>
      <trkpt lat="50.47189" lon="2.596">
        <ele>47</ele>
        <time>2018-12-06T04:06:41Z</time>
      </trkpt>
      <trkpt lat="50.4719" lon="2.59587">
        <ele>48</ele>
        <time>2018-12-06T04:07:41Z</time>
      </trkpt>
      <trkpt lat="50.47188" lon="2.5958">
        <ele>48</ele>
        <time>2018-12-06T04:08:41Z</time>
      </trkpt>
      <trkpt lat="50.47194" lon="2.59549">
        <ele>47</ele>
        <time>2018-12-06T04:09:41Z</time>
      </trkpt>
      <trkpt lat="50.47221" lon="2.5949">
        <ele>46</ele>
        <time>2018-12-06T04:10:41Z</time>
      </trkpt>
      <trkpt lat="50.47263" lon="2.59383">
        <ele>47</ele>
        <time>2018-12-06T04:11:41Z</time>
      </trkpt>
      <trkpt lat="50.47307" lon="2.59255">
        <ele>47</ele>
        <time>2018-12-06T04:12:41Z</time>
      </trkpt>
      <trkpt lat="50.4729" lon="2.59288">
        <ele>47</ele>
        <time>2018-12-06T04:13:41Z</time>
      </trkpt>
      <trkpt lat="50.47233" lon="2.59425">
        <ele>47</ele>
        <time>2018-12-06T04:14:41Z</time>
      </trkpt>
      <trkpt lat="50.47233" lon="2.59425">
        <ele>47</ele>
        <time>2018-12-06T04:15:41Z</time>
      </trkpt>
      <trkpt lat="50.47205" lon="2.5949">
        <ele>46</ele>
        <time>2018-12-06T04:16:41Z</time>
      </trkpt>
      <trkpt lat="50.47179" lon="2.59546">
        <ele>47</ele>
        <time>2018-12-06T04:17:41Z</time>
      </trkpt>
      <trkpt lat="50.47167" lon="2.59554">
        <ele>47</ele>
        <time>2018-12-06T04:18:41Z</time>
      </trkpt>
      <trkpt lat="50.47162" lon="2.59554">
        <ele>47</ele>
        <time>2018-12-06T04:19:41Z</time>
      </trkpt>
      <trkpt lat="50.47154" lon="2.59557">
        <ele>47</ele>
        <time>2018-12-06T04:20:41Z</time>
      </trkpt>
      <trkpt lat="50.47147" lon="2.59566">
        <ele>47</ele>
        <time>2018-12-06T04:21:41Z</time>
      </trkpt>
      <trkpt lat="50.47142" lon="2.59579">
        <ele>48</ele>
        <time>2018-12-06T04:22:41Z</time>
      </trkpt>
      <trkpt lat="50.4714" lon="2.59594">
        <ele>47</ele>
        <time>2018-12-06T04:23:41Z</time>
      </trkpt>
      <trkpt lat="50.47141" lon="2.59604">
        <ele>47</ele>
        <time>2018-12-06T04:24:41Z</time>
      </trkpt>
      <trkpt lat="50.47144" lon="2.59614">
        <ele>47</ele>
        <time>2018-12-06T04:25:41Z</time>
      </trkpt>
      <trkpt lat="50.47153" lon="2.59627">
        <ele>47</ele>
        <time>2018-12-06T04:26:41Z</time>
      </trkpt>
      <trkpt lat="50.47166" lon="2.59632">
        <ele>47</ele>
        <time>2018-12-06T04:27:41Z</time>
      </trkpt>
      <trkpt lat="50.47174" lon="2.59629">
        <ele>47</ele>
        <time>2018-12-06T04:28:41Z</time>
      </trkpt>
      <trkpt lat="50.47183" lon="2.5962">
        <ele>47</ele>
        <time>2018-12-06T04:29:41Z</time>
      </trkpt>
      <trkpt lat="50.47189" lon="2.596">
        <ele>47</ele>
        <time>2018-12-06T04:30:41Z</time>
      </trkpt>
      <trkpt lat="50.4719" lon="2.59587">
        <ele>48</ele>
        <time>2018-12-06T04:31:41Z</time>
      </trkpt>
      <trkpt lat="50.47188" lon="2.5958">
        <ele>48</ele>
        <time>2018-12-06T04:32:41Z</time>
      </trkpt>
      <trkpt lat="50.47194" lon="2.59549">
        <ele>47</ele>
        <time>2018-12-06T04:33:41Z</time>
      </trkpt>
      <trkpt lat="50.47221" lon="2.5949">
        <ele>46</ele>
        <time>2018-12-06T04:34:41Z</time>
      </trkpt>
      <trkpt lat="50.47263" lon="2.59383">
        <ele>47</ele>
        <time>2018-12-06T04:35:41Z</time>
      </trkpt>
      <trkpt lat="50.47307" lon="2.59255">
        <ele>47</ele>
        <time>2018-12-06T04:36:41Z</time>
      </trkpt>
      <trkpt lat="50.47355" lon="2.59131">
        <ele>48</ele>
        <time>2018-12-06T04:37:41Z</time>
      </trkpt>
      <trkpt lat="50.47386" lon="2.59069">
        <ele>48</ele>
        <time>2018-12-06T04:38:41Z</time>
      </trkpt>
      <trkpt lat="50.47391" lon="2.59062">
        <ele>48</ele>
        <time>2018-12-06T04:39:41Z</time>
      </trkpt>
      <trkpt lat="50.47404" lon="2.59053">
        <ele>48</ele>
        <time>2018-12-06T04:40:41Z</time>
      </trkpt>
      <trkpt lat="50.47411" lon="2.5904">
        <ele>49</ele>
        <time>2018-12-06T04:41:41Z</time>
      </trkpt>
      <trkpt lat="50.47413" lon="2.58998">
        <ele>51</ele>
        <time>2018-12-06T04:42:41Z</time>
      </trkpt>
      <trkpt lat="50.47418" lon="2.58979">
        <ele>51</ele>
        <time>2018-12-06T04:43:41Z</time>
      </trkpt>
      <trkpt lat="50.47448" lon="2.5891">
        <ele>51</ele>
        <time>2018-12-06T04:44:41Z</time>
      </trkpt>
      <trkpt lat="50.47496" lon="2.58777">
        <ele>50</ele>
        <time>2018-12-06T04:45:41Z</time>
      </trkpt>
      <trkpt lat="50.47518" lon="2.58726">
        <ele>49</ele>
        <time>2018-12-06T04:46:41Z</time>
      </trkpt>
      <trkpt lat="50.47542" lon="2.58679">
        <ele>48</ele>
        <time>2018-12-06T04:47:41Z</time>
      </trkpt>
      <trkpt lat="50.47606" lon="2.58565">
        <ele>48</ele>
        <time>2018-12-06T04:48:41Z</time>
      </trkpt>
      <trkpt lat="50.47647" lon="2.58466">
        <ele>48</ele>
        <time>2018-12-06T04:49:41Z</time>
      </trkpt>
      <trkpt lat="50.47729" lon="2.58538">
        <ele>48</ele>
        <time>2018-12-06T04:50:41Z</time>
      </trkpt>
      <trkpt lat="50.47831" lon="2.58678">
        <ele>48</ele>
        <time>2018-12-06T04:51:41Z</time>
      </trkpt>
      <trkpt lat="50.47853" lon="2.58717">
        <ele>48</ele>
        <time>2018-12-06T04:52:41Z</time>
      </trkpt>
      <trkpt lat="50.47932" lon="2.58916">
        <ele>47</ele>
        <time>2018-12-06T04:53:41Z</time>
      </trkpt>
      <trkpt lat="50.47962" lon="2.58971">
        <ele>47</ele>
        <time>2018-12-06T04:54:41Z</time>
      </trkpt>
      <trkpt lat="50.47983" lon="2.59">
        <ele>47</ele>
        <time>2018-12-06T04:55:41Z</time>
      </trkpt>
      <trkpt lat="50.48026" lon="2.59053">
        <ele>48</ele>
        <time>2018-12-06T04:56:41Z</time>
      </trkpt>
      <trkpt lat="50.48101" lon="2.59127">
        <ele>50</ele>
        <time>2018-12-06T04:57:41Z</time>
      </trkpt>
      <trkpt lat="50.48129" lon="2.59162">
        <ele>49</ele>
        <time>2018-12-06T04:58:41Z</time>
      </trkpt>
      <trkpt lat="50.48154" lon="2.59207">
        <ele>48</ele>
        <time>2018-12-06T04:59:41Z</time>
      </trkpt>
      <trkpt lat="50.48141" lon="2.59225">
        <ele>48</ele>
        <time>2018-12-06T05:00:41Z</time>
      </trkpt>
      <trkpt lat="50.48141" lon="2.59225">
        <ele>48</ele>
        <time>2018-12-06T05:01:41Z</time>
      </trkpt>
      <trkpt lat="50.48154" lon="2.59207">
        <ele>48</ele>
        <time>2018-12-06T05:02:41Z</time>
      </trkpt>
      <trkpt lat="50.48129" lon="2.59162">
        <ele>49</ele>
        <time>2018-12-06T05:03:41Z</time>
      </trkpt>
      <trkpt lat="50.48101" lon="2.59127">
        <ele>50</ele>
        <time>2018-12-06T05:04:41Z</time>
      </trkpt>
      <trkpt lat="50.48026" lon="2.59053">
        <ele>48</ele>
        <time>2018-12-06T05:05:41Z</time>
      </trkpt>
      <trkpt lat="50.47983" lon="2.59">
        <ele>47</ele>
        <time>2018-12-06T05:06:41Z</time>
      </trkpt>
      <trkpt lat="50.47962" lon="2.58971">
        <ele>47</ele>
        <time>2018-12-06T05:07:41Z</time>
      </trkpt>
      <trkpt lat="50.47932" lon="2.58916">
        <ele>47</ele>
        <time>2018-12-06T05:08:41Z</time>
      </trkpt>
      <trkpt lat="50.47853" lon="2.58717">
        <ele>48</ele>
        <time>2018-12-06T05:09:41Z</time>
      </trkpt>
      <trkpt lat="50.47831" lon="2.58678">
        <ele>48</ele>
        <time>2018-12-06T05:10:41Z</time>
      </trkpt>
      <trkpt lat="50.47817" lon="2.58657">
        <ele>48</ele>
        <time>2018-12-06T05:11:41Z</time>
      </trkpt>
      <trkpt lat="50.47729" lon="2.58538">
        <ele>48</ele>
        <time>2018-12-06T05:12:41Z</time>
      </trkpt>
      <trkpt lat="50.47635" lon="2.58456">
        <ele>49</ele>
        <time>2018-12-06T05:13:41Z</time>
      </trkpt>
      <trkpt lat="50.47528" lon="2.58376">
        <ele>50</ele>
        <time>2018-12-06T05:14:41Z</time>
      </trkpt>
      <trkpt lat="50.47475" lon="2.58326">
        <ele>50</ele>
        <time>2018-12-06T05:15:41Z</time>
      </trkpt>
      <trkpt lat="50.47449" lon="2.58288">
        <ele>50</ele>
        <time>2018-12-06T05:16:41Z</time>
      </trkpt>
      <trkpt lat="50.47436" lon="2.58264">
        <ele>51</ele>
        <time>2018-12-06T05:17:41Z</time>
      </trkpt>
      <trkpt lat="50.47422" lon="2.58236">
        <ele>51</ele>
        <time>2018-12-06T05:18:41Z</time>
      </trkpt>
      <trkpt lat="50.47408" lon="2.58198">
        <ele>52</ele>
        <time>2018-12-06T05:19:41Z</time>
      </trkpt>
      <trkpt lat="50.47389" lon="2.58122">
        <ele>54</ele>
        <time>2018-12-06T05:20:41Z</time>
      </trkpt>
      <trkpt lat="50.4738" lon="2.58059">
        <ele>56</ele>
        <time>2018-12-06T05:21:41Z</time>
      </trkpt>
      <trkpt lat="50.47372" lon="2.58026">
        <ele>57</ele>
        <time>2018-12-06T05:22:41Z</time>
      </trkpt>
      <trkpt lat="50.47361" lon="2.57989">
        <ele>58</ele>
        <time>2018-12-06T05:23:41Z</time>
      </trkpt>
      <trkpt lat="50.47345" lon="2.5795">
        <ele>59</ele>
        <time>2018-12-06T05:24:41Z</time>
      </trkpt>
      <trkpt lat="50.47318" lon="2.57903">
        <ele>61</ele>
        <time>2018-12-06T05:25:41Z</time>
      </trkpt>
      <trkpt lat="50.47236" lon="2.57787">
        <ele>63</ele>
        <time>2018-12-06T05:26:41Z</time>
      </trkpt>
      <trkpt lat="50.472" lon="2.57729">
        <ele>63</ele>
        <time>2018-12-06T05:27:41Z</time>
      </trkpt>
      <trkpt lat="50.47303" lon="2.57609">
        <ele>66</ele>
        <time>2018-12-06T05:28:41Z</time>
      </trkpt>
      <trkpt lat="50.4733" lon="2.5757">
        <ele>67</ele>
        <time>2018-12-06T05:29:41Z</time>
      </trkpt>
      <trkpt lat="50.47341" lon="2.57547">
        <ele>67</ele>
        <time>2018-12-06T05:30:41Z</time>
      </trkpt>
      <trkpt lat="50.4741" lon="2.57357">
        <ele>68</ele>
        <time>2018-12-06T05:31:41Z</time>
      </trkpt>
      <trkpt lat="50.47428" lon="2.57271">
        <ele>69</ele>
        <time>2018-12-06T05:32:41Z</time>
      </trkpt>
      <trkpt lat="50.47456" lon="2.5715">
        <ele>71</ele>
        <time>2018-12-06T05:33:41Z</time>
      </trkpt>
      <trkpt lat="50.47511" lon="2.56983">
        <ele>71</ele>
        <time>2018-12-06T05:34:41Z</time>
      </trkpt>
      <trkpt lat="50.4753" lon="2.56899">
        <ele>71</ele>
        <time>2018-12-06T05:35:41Z</time>
      </trkpt>
      <trkpt lat="50.47536" lon="2.56846">
        <ele>71</ele>
        <time>2018-12-06T05:36:41Z</time>
      </trkpt>
      <trkpt lat="50.47536" lon="2.56846">
        <ele>71</ele>
        <time>2018-12-06T05:37:41Z</time>
      </trkpt>
      <trkpt lat="50.47542" lon="2.56802">
        <ele>72</ele>
        <time>2018-12-06T05:38:41Z</time>
      </trkpt>
      <trkpt lat="50.47559" lon="2.56733">
        <ele>72</ele>
        <time>2018-12-06T05:39:41Z</time>
      </trkpt>
      <trkpt lat="50.47601" lon="2.5664">
        <ele>71</ele>
        <time>2018-12-06T05:40:41Z</time>
      </trkpt>
      <trkpt lat="50.47643" lon="2.56522">
        <ele>68</ele>
        <time>2018-12-06T05:41:41Z</time>
      </trkpt>
      <trkpt lat="50.47682" lon="2.5643">
        <ele>67</ele>
        <time>2018-12-06T05:42:41Z</time>
      </trkpt>
      <trkpt lat="50.47695" lon="2.56392">
        <ele>67</ele>
        <time>2018-12-06T05:43:41Z</time>
      </trkpt>
      <trkpt lat="50.47704" lon="2.56357">
        <ele>68</ele>
        <time>2018-12-06T05:44:41Z</time>
      </trkpt>
      <trkpt lat="50.47716" lon="2.56296">
        <ele>69</ele>
        <time>2018-12-06T05:45:41Z</time>
      </trkpt>
      <trkpt lat="50.47722" lon="2.56228">
        <ele>72</ele>
        <time>2018-12-06T05:46:41Z</time>
      </trkpt>
      <trkpt lat="50.47722" lon="2.56192">
        <ele>72</ele>
        <time>2018-12-06T05:47:41Z</time>
      </trkpt>
      <trkpt lat="50.4772" lon="2.56159">
        <ele>73</ele>
        <time>2018-12-06T05:48:41Z</time>
      </trkpt>
      <trkpt lat="50.47711" lon="2.56091">
        <ele>75</ele>
        <time>2018-12-06T05:49:41Z</time>
      </trkpt>
      <trkpt lat="50.47705" lon="2.56062">
        <ele>75</ele>
        <time>2018-12-06T05:50:41Z</time>
      </trkpt>
      <trkpt lat="50.47697" lon="2.5603">
        <ele>76</ele>
        <time>2018-12-06T05:51:41Z</time>
      </trkpt>
      <trkpt lat="50.47678" lon="2.55975">
        <ele>76</ele>
        <time>2018-12-06T05:52:41Z</time>
      </trkpt>
      <trkpt lat="50.4767" lon="2.55942">
        <ele>75</ele>
        <time>2018-12-06T05:53:41Z</time>
      </trkpt>
      <trkpt lat="50.4776" lon="2.55899">
        <ele>76</ele>
        <time>2018-12-06T05:54:41Z</time>
      </trkpt>
      <trkpt lat="50.4777" lon="2.55888">
        <ele>76</ele>
        <time>2018-12-06T05:55:41Z</time>
      </trkpt>
      <trkpt lat="50.47843" lon="2.557">
        <ele>76</ele>
        <time>2018-12-06T05:56:41Z</time>
      </trkpt>
      <trkpt lat="50.47895" lon="2.55573">
        <ele>75</ele>
        <time>2018-12-06T05:57:41Z</time>
      </trkpt>
      <trkpt lat="50.47928" lon="2.55457">
        <ele>73</ele>
        <time>2018-12-06T05:58:41Z</time>
      </trkpt>
      <trkpt lat="50.4794" lon="2.5542">
        <ele>72</ele>
        <time>2018-12-06T05:59:41Z</time>
      </trkpt>
      <trkpt lat="50.47948" lon="2.55405">
        <ele>72</ele>
        <time>2018-12-06T06:00:41Z</time>
      </trkpt>
      <trkpt lat="50.48019" lon="2.5531">
        <ele>71</ele>
        <time>2018-12-06T06:01:41Z</time>
      </trkpt>
      <trkpt lat="50.48117" lon="2.5522">
        <ele>70</ele>
        <time>2018-12-06T06:02:41Z</time>
      </trkpt>
      <trkpt lat="50.48183" lon="2.55143">
        <ele>67</ele>
        <time>2018-12-06T06:03:41Z</time>
      </trkpt>
      <trkpt lat="50.48181" lon="2.55134">
        <ele>67</ele>
        <time>2018-12-06T06:04:41Z</time>
      </trkpt>
      <trkpt lat="50.48222" lon="2.55083">
        <ele>64</ele>
        <time>2018-12-06T06:05:41Z</time>
      </trkpt>
      <trkpt lat="50.48292" lon="2.55009">
        <ele>61</ele>
        <time>2018-12-06T06:06:41Z</time>
      </trkpt>
      <trkpt lat="50.48387" lon="2.54858">
        <ele>51</ele>
        <time>2018-12-06T06:07:41Z</time>
      </trkpt>
      <trkpt lat="50.48393" lon="2.54854">
        <ele>51</ele>
        <time>2018-12-06T06:08:41Z</time>
      </trkpt>
      <trkpt lat="50.48393" lon="2.54854">
        <ele>51</ele>
        <time>2018-12-06T06:09:41Z</time>
      </trkpt>
      <trkpt lat="50.48406" lon="2.54843">
        <ele>50</ele>
        <time>2018-12-06T06:10:41Z</time>
      </trkpt>
      <trkpt lat="50.48431" lon="2.54838">
        <ele>50</ele>
        <time>2018-12-06T06:11:41Z</time>
      </trkpt>
      <trkpt lat="50.48501" lon="2.54849">
        <ele>51</ele>
        <time>2018-12-06T06:12:41Z</time>
      </trkpt>
      <trkpt lat="50.48606" lon="2.54896">
        <ele>54</ele>
        <time>2018-12-06T06:13:41Z</time>
      </trkpt>
      <trkpt lat="50.48673" lon="2.5492">
        <ele>54</ele>
        <time>2018-12-06T06:14:41Z</time>
      </trkpt>
      <trkpt lat="50.48732" lon="2.54945">
        <ele>52</ele>
        <time>2018-12-06T06:15:41Z</time>
      </trkpt>
      <trkpt lat="50.48746" lon="2.54946">
        <ele>51</ele>
        <time>2018-12-06T06:16:41Z</time>
      </trkpt>
      <trkpt lat="50.48743" lon="2.54927">
        <ele>51</ele>
        <time>2018-12-06T06:17:41Z</time>
      </trkpt>
      <trkpt lat="50.48742" lon="2.54886">
        <ele>49</ele>
        <time>2018-12-06T06:18:41Z</time>
      </trkpt>
      <trkpt lat="50.4874" lon="2.54864">
        <ele>48</ele>
        <time>2018-12-06T06:19:41Z</time>
      </trkpt>
      <trkpt lat="50.4873" lon="2.5484">
        <ele>48</ele>
        <time>2018-12-06T06:20:41Z</time>
      </trkpt>
      <trkpt lat="50.48712" lon="2.5481">
        <ele>47</ele>
        <time>2018-12-06T06:21:41Z</time>
      </trkpt>
      <trkpt lat="50.48712" lon="2.5481">
        <ele>47</ele>
        <time>2018-12-06T06:22:41Z</time>
      </trkpt>
      <trkpt lat="50.48692" lon="2.54776">
        <ele>46</ele>
        <time>2018-12-06T06:23:41Z</time>
      </trkpt>
      <trkpt lat="50.48628" lon="2.54705">
        <ele>42</ele>
        <time>2018-12-06T06:24:41Z</time>
      </trkpt>
      <trkpt lat="50.48604" lon="2.54682">
        <ele>41</ele>
        <time>2018-12-06T06:25:41Z</time>
      </trkpt>
      <trkpt lat="50.48546" lon="2.54642">
        <ele>40</ele>
        <time>2018-12-06T06:26:41Z</time>
      </trkpt>
      <trkpt lat="50.48547" lon="2.54631">
        <ele>40</ele>
        <time>2018-12-06T06:27:41Z</time>
      </trkpt>
      <trkpt lat="50.48551" lon="2.54621">
        <ele>40</ele>
        <time>2018-12-06T06:28:41Z</time>
      </trkpt>
      <trkpt lat="50.4858" lon="2.54578">
        <ele>39</ele>
        <time>2018-12-06T06:29:41Z</time>
      </trkpt>
      <trkpt lat="50.48623" lon="2.5457">
        <ele>38</ele>
        <time>2018-12-06T06:30:41Z</time>
      </trkpt>
      <trkpt lat="50.48631" lon="2.54566">
        <ele>38</ele>
        <time>2018-12-06T06:31:41Z</time>
      </trkpt>
      <trkpt lat="50.48661" lon="2.54512">
        <ele>37</ele>
        <time>2018-12-06T06:32:41Z</time>
      </trkpt>
      <trkpt lat="50.48665" lon="2.54498">
        <ele>37</ele>
        <time>2018-12-06T06:33:41Z</time>
      </trkpt>
      <trkpt lat="50.48679" lon="2.54393">
        <ele>37</ele>
        <time>2018-12-06T06:34:41Z</time>
      </trkpt>
      <trkpt lat="50.48677" lon="2.54367">
        <ele>37</ele>
        <time>2018-12-06T06:35:41Z</time>
      </trkpt>
      <trkpt lat="50.4862" lon="2.5427">
        <ele>36</ele>
        <time>2018-12-06T06:36:41Z</time>
      </trkpt>
      <trkpt lat="50.48588" lon="2.5421">
        <ele>35</ele>
        <time>2018-12-06T06:37:41Z</time>
      </trkpt>
      <trkpt lat="50.48577" lon="2.54182">
        <ele>36</ele>
        <time>2018-12-06T06:38:41Z</time>
      </trkpt>
      <trkpt lat="50.48604" lon="2.54123">
        <ele>38</ele>
        <time>2018-12-06T06:39:41Z</time>
      </trkpt>
      <trkpt lat="50.48618" lon="2.54102">
        <ele>40</ele>
        <time>2018-12-06T06:40:41Z</time>
      </trkpt>
      <trkpt lat="50.4866" lon="2.54074">
        <ele>42</ele>
        <time>2018-12-06T06:41:41Z</time>
      </trkpt>
      <trkpt lat="50.48681" lon="2.54044">
        <ele>45</ele>
        <time>2018-12-06T06:42:41Z</time>
      </trkpt>
      <trkpt lat="50.48837" lon="2.5379">
        <ele>62</ele>
        <time>2018-12-06T06:43:41Z</time>
      </trkpt>
      <trkpt lat="50.48842" lon="2.53769">
        <ele>63</ele>
        <time>2018-12-06T06:44:41Z</time>
      </trkpt>
      <trkpt lat="50.48842" lon="2.53769">
        <ele>63</ele>
        <time>2018-12-06T06:45:41Z</time>
      </trkpt>
      <trkpt lat="50.48844" lon="2.53756">
        <ele>63</ele>
        <time>2018-12-06T06:46:41Z</time>
      </trkpt>
      <trkpt lat="50.48832" lon="2.53699">
        <ele>62</ele>
        <time>2018-12-06T06:47:41Z</time>
      </trkpt>
      <trkpt lat="50.48832" lon="2.53681">
        <ele>62</ele>
        <time>2018-12-06T06:48:41Z</time>
      </trkpt>
      <trkpt lat="50.48887" lon="2.5357">
        <ele>63</ele>
        <time>2018-12-06T06:49:41Z</time>
      </trkpt>
      <trkpt lat="50.48913" lon="2.53495">
        <ele>65</ele>
        <time>2018-12-06T06:50:41Z</time>
      </trkpt>
      <trkpt lat="50.4896" lon="2.53387">
        <ele>68</ele>
        <time>2018-12-06T06:51:41Z</time>
      </trkpt>
      <trkpt lat="50.49015" lon="2.53287">
        <ele>69</ele>
        <time>2018-12-06T06:52:41Z</time>
      </trkpt>
      <trkpt lat="50.49061" lon="2.53216">
        <ele>71</ele>
        <time>2018-12-06T06:53:41Z</time>
      </trkpt>
      <trkpt lat="50.49112" lon="2.53129">
        <ele>72</ele>
        <time>2018-12-06T06:54:41Z</time>
      </trkpt>
      <trkpt lat="50.49172" lon="2.53052">
        <ele>72</ele>
        <time>2018-12-06T06:55:41Z</time>
      </trkpt>
      <trkpt lat="50.49174" lon="2.53035">
        <ele>71</ele>
        <time>2018-12-06T06:56:41Z</time>
      </trkpt>
      <trkpt lat="50.49174" lon="2.52946">
        <ele>72</ele>
        <time>2018-12-06T06:57:41Z</time>
      </trkpt>
      <trkpt lat="50.49171" lon="2.52847">
        <ele>72</ele>
        <time>2018-12-06T06:58:41Z</time>
      </trkpt>
      <trkpt lat="50.49167" lon="2.52725">
        <ele>71</ele>
        <time>2018-12-06T06:59:41Z</time>
      </trkpt>
      <trkpt lat="50.49161" lon="2.52632">
        <ele>71</ele>
        <time>2018-12-06T07:00:41Z</time>
      </trkpt>
      <trkpt lat="50.49165" lon="2.5263">
        <ele>71</ele>
        <time>2018-12-06T07:01:41Z</time>
      </trkpt>
      <trkpt lat="50.4923" lon="2.52625">
        <ele>67</ele>
        <time>2018-12-06T07:02:41Z</time>
      </trkpt>
      <trkpt lat="50.49333" lon="2.52635">
        <ele>64</ele>
        <time>2018-12-06T07:03:41Z</time>
      </trkpt>
      <trkpt lat="50.49355" lon="2.52644">
        <ele>64</ele>
        <time>2018-12-06T07:04:41Z</time>
      </trkpt>
      <trkpt lat="50.49414" lon="2.52681">
        <ele>65</ele>
        <time>2018-12-06T07:05:41Z</time>
      </trkpt>
      <trkpt lat="50.49445" lon="2.52694">
        <ele>66</ele>
        <time>2018-12-06T07:06:41Z</time>
      </trkpt>
      <trkpt lat="50.49489" lon="2.52703">
        <ele>68</ele>
        <time>2018-12-06T07:07:41Z</time>
      </trkpt>
      <trkpt lat="50.49536" lon="2.52704">
        <ele>70</ele>
        <time>2018-12-06T07:08:41Z</time>
      </trkpt>
      <trkpt lat="50.49575" lon="2.52701">
        <ele>72</ele>
        <time>2018-12-06T07:09:41Z</time>
      </trkpt>
      <trkpt lat="50.49598" lon="2.52697">
        <ele>72</ele>
        <time>2018-12-06T07:10:41Z</time>
      </trkpt>
      <trkpt lat="50.49696" lon="2.52663">
        <ele>72</ele>
        <time>2018-12-06T07:11:41Z</time>
      </trkpt>
      <trkpt lat="50.49729" lon="2.52654">
        <ele>73</ele>
        <time>2018-12-06T07:12:41Z</time>
      </trkpt>
      <trkpt lat="50.49789" lon="2.52643">
        <ele>73</ele>
        <time>2018-12-06T07:13:41Z</time>
      </trkpt>
      <trkpt lat="50.49801" lon="2.52646">
        <ele>73</ele>
        <time>2018-12-06T07:14:41Z</time>
      </trkpt>
      <trkpt lat="50.49834" lon="2.52661">
        <ele>74</ele>
        <time>2018-12-06T07:15:41Z</time>
      </trkpt>
      <trkpt lat="50.49903" lon="2.52715">
        <ele>76</ele>
        <time>2018-12-06T07:16:41Z</time>
      </trkpt>
      <trkpt lat="50.49915" lon="2.52736">
        <ele>77</ele>
        <time>2018-12-06T07:17:41Z</time>
      </trkpt>
      <trkpt lat="50.49922" lon="2.52754">
        <ele>78</ele>
        <time>2018-12-06T07:18:41Z</time>
      </trkpt>
      <trkpt lat="50.4994" lon="2.5276">
        <ele>79</ele>
        <time>2018-12-06T07:19:41Z</time>
      </trkpt>
      <trkpt lat="50.49955" lon="2.52769">
        <ele>80</ele>
        <time>2018-12-06T07:20:41Z</time>
      </trkpt>
      <trkpt lat="50.49998" lon="2.52816">
        <ele>83</ele>
        <time>2018-12-06T07:21:41Z</time>
      </trkpt>
      <trkpt lat="50.50016" lon="2.52834">
        <ele>86</ele>
        <time>2018-12-06T07:22:41Z</time>
      </trkpt>
      <trkpt lat="50.50035" lon="2.52829">
        <ele>87</ele>
        <time>2018-12-06T07:23:41Z</time>
      </trkpt>
      <trkpt lat="50.50048" lon="2.52808">
        <ele>87</ele>
        <time>2018-12-06T07:24:41Z</time>
      </trkpt>
      <trkpt lat="50.50055" lon="2.52785">
        <ele>86</ele>
        <time>2018-12-06T07:25:41Z</time>
      </trkpt>
      <trkpt lat="50.50055" lon="2.52785">
        <ele>86</ele>
        <time>2018-12-06T07:26:41Z</time>
      </trkpt>
      <trkpt lat="50.50064" lon="2.52755">
        <ele>84</ele>
        <time>2018-12-06T07:27:41Z</time>
      </trkpt>
      <trkpt lat="50.50078" lon="2.52722">
        <ele>82</ele>
        <time>2018-12-06T07:28:41Z</time>
      </trkpt>
      <trkpt lat="50.5009" lon="2.52705">
        <ele>80</ele>
        <time>2018-12-06T07:29:41Z</time>
      </trkpt>
      <trkpt lat="50.50102" lon="2.52695">
        <ele>80</ele>
        <time>2018-12-06T07:30:41Z</time>
      </trkpt>
      <trkpt lat="50.50136" lon="2.52674">
        <ele>77</ele>
        <time>2018-12-06T07:31:41Z</time>
      </trkpt>
      <trkpt lat="50.50178" lon="2.52663">
        <ele>76</ele>
        <time>2018-12-06T07:32:41Z</time>
      </trkpt>
      <trkpt lat="50.50225" lon="2.52633">
        <ele>74</ele>
        <time>2018-12-06T07:33:41Z</time>
      </trkpt>
      <trkpt lat="50.50308" lon="2.52591">
        <ele>69</ele>
        <time>2018-12-06T07:34:41Z</time>
      </trkpt>
      <trkpt lat="50.50328" lon="2.52569">
        <ele>67</ele>
        <time>2018-12-06T07:35:41Z</time>
      </trkpt>
      <trkpt lat="50.5039" lon="2.52533">
        <ele>63</ele>
        <time>2018-12-06T07:36:41Z</time>
      </trkpt>
      <trkpt lat="50.50487" lon="2.52504">
        <ele>58</ele>
        <time>2018-12-06T07:37:41Z</time>
      </trkpt>
      <trkpt lat="50.50503" lon="2.52478">
        <ele>56</ele>
        <time>2018-12-06T07:38:41Z</time>
      </trkpt>
      <trkpt lat="50.50524" lon="2.52453">
        <ele>54</ele>
        <time>2018-12-06T07:39:41Z</time>
      </trkpt>
      <trkpt lat="50.50551" lon="2.5245">
        <ele>53</ele>
        <time>2018-12-06T07:40:41Z</time>
      </trkpt>
      <trkpt lat="50.50579" lon="2.52454">
        <ele>52</ele>
        <time>2018-12-06T07:41:41Z</time>
      </trkpt>
      <trkpt lat="50.50684" lon="2.52499">
        <ele>45</ele>
        <time>2018-12-06T07:42:41Z</time>
      </trkpt>
      <trkpt lat="50.50703" lon="2.52523">
        <ele>46</ele>
        <time>2018-12-06T07:43:41Z</time>
      </trkpt>
      <trkpt lat="50.50728" lon="2.52517">
        <ele>45</ele>
        <time>2018-12-06T07:44:41Z</time>
      </trkpt>
      <trkpt lat="50.50741" lon="2.52518">
        <ele>45</ele>
        <time>2018-12-06T07:45:41Z</time>
      </trkpt>
      <trkpt lat="50.50777" lon="2.52533">
        <ele>44</ele>
        <time>2018-12-06T07:46:41Z</time>
      </trkpt>
      <trkpt lat="50.50812" lon="2.52541">
        <ele>42</ele>
        <time>2018-12-06T07:47:41Z</time>
      </trkpt>
      <trkpt lat="50.50856" lon="2.52541">
        <ele>40</ele>
        <time>2018-12-06T07:48:41Z</time>
      </trkpt>
      <trkpt lat="50.50885" lon="2.52529">
        <ele>38</ele>
        <time>2018-12-06T07:49:41Z</time>
      </trkpt>
      <trkpt lat="50.50896" lon="2.52531">
        <ele>38</ele>
        <time>2018-12-06T07:50:41Z</time>
      </trkpt>
      <trkpt lat="50.50909" lon="2.52562">
        <ele>38</ele>
        <time>2018-12-06T07:51:41Z</time>
      </trkpt>
      <trkpt lat="50.50928" lon="2.52619">
        <ele>39</ele>
        <time>2018-12-06T07:52:41Z</time>
      </trkpt>
      <trkpt lat="50.50952" lon="2.52598">
        <ele>38</ele>
        <time>2018-12-06T07:53:41Z</time>
      </trkpt>
      <trkpt lat="50.51022" lon="2.52545">
        <ele>37</ele>
        <time>2018-12-06T07:54:41Z</time>
      </trkpt>
      <trkpt lat="50.51082" lon="2.52493">
        <ele>37</ele>
        <time>2018-12-06T07:55:41Z</time>
      </trkpt>
      <trkpt lat="50.5112" lon="2.52429">
        <ele>38</ele>
        <time>2018-12-06T07:56:41Z</time>
      </trkpt>
      <trkpt lat="50.51167" lon="2.52564">
        <ele>38</ele>
        <time>2018-12-06T07:57:41Z</time>
      </trkpt>
      <trkpt lat="50.51178" lon="2.5259">
        <ele>38</ele>
        <time>2018-12-06T07:58:41Z</time>
      </trkpt>
      <trkpt lat="50.51225" lon="2.52687">
        <ele>37</ele>
        <time>2018-12-06T07:59:41Z</time>
      </trkpt>
      <trkpt lat="50.51262" lon="2.52781">
        <ele>36</ele>
        <time>2018-12-06T08:00:41Z</time>
      </trkpt>
      <trkpt lat="50.51359" lon="2.53052">
        <ele>36</ele>
        <time>2018-12-06T08:01:41Z</time>
      </trkpt>
      <trkpt lat="50.51369" lon="2.53091">
        <ele>36</ele>
        <time>2018-12-06T08:02:41Z</time>
      </trkpt>
      <trkpt lat="50.51383" lon="2.5316">
        <ele>36</ele>
        <time>2018-12-06T08:03:41Z</time>
      </trkpt>
      <trkpt lat="50.51389" lon="2.53183">
        <ele>36</ele>
        <time>2018-12-06T08:04:41Z</time>
      </trkpt>
      <trkpt lat="50.51397" lon="2.53204">
        <ele>36</ele>
        <time>2018-12-06T08:05:41Z</time>
      </trkpt>
      <trkpt lat="50.51484" lon="2.53369">
        <ele>36</ele>
        <time>2018-12-06T08:06:41Z</time>
      </trkpt>
      <trkpt lat="50.51484" lon="2.53369">
        <ele>36</ele>
        <time>2018-12-06T08:07:41Z</time>
      </trkpt>
      <trkpt lat="50.5152" lon="2.53447">
        <ele>36</ele>
        <time>2018-12-06T08:08:41Z</time>
      </trkpt>
      <trkpt lat="50.51527" lon="2.53466">
        <ele>36</ele>
        <time>2018-12-06T08:09:41Z</time>
      </trkpt>
      <trkpt lat="50.51533" lon="2.53507">
        <ele>36</ele>
        <time>2018-12-06T08:10:41Z</time>
      </trkpt>
      <trkpt lat="50.51542" lon="2.53572">
        <ele>36</ele>
        <time>2018-12-06T08:11:41Z</time>
      </trkpt>
      <trkpt lat="50.5156" lon="2.5375">
        <ele>38</ele>
        <time>2018-12-06T08:12:41Z</time>
      </trkpt>
      <trkpt lat="50.51573" lon="2.53855">
        <ele>37</ele>
        <time>2018-12-06T08:13:41Z</time>
      </trkpt>
      <trkpt lat="50.51578" lon="2.53947">
        <ele>36</ele>
        <time>2018-12-06T08:14:41Z</time>
      </trkpt>
      <trkpt lat="50.51596" lon="2.54042">
        <ele>35</ele>
        <time>2018-12-06T08:15:41Z</time>
      </trkpt>
      <trkpt lat="50.51604" lon="2.54069">
        <ele>34</ele>
        <time>2018-12-06T08:16:41Z</time>
      </trkpt>
      <trkpt lat="50.51629" lon="2.54136">
        <ele>33</ele>
        <time>2018-12-06T08:17:41Z</time>
      </trkpt>
      <trkpt lat="50.5166" lon="2.54195">
        <ele>33</ele>
        <time>2018-12-06T08:18:41Z</time>
      </trkpt>
      <trkpt lat="50.5168" lon="2.54244">
        <ele>32</ele>
        <time>2018-12-06T08:19:41Z</time>
      </trkpt>
      <trkpt lat="50.5171" lon="2.5437">
        <ele>32</ele>
        <time>2018-12-06T08:20:41Z</time>
      </trkpt>
      <trkpt lat="50.51717" lon="2.54388">
        <ele>32</ele>
        <time>2018-12-06T08:21:41Z</time>
      </trkpt>
      <trkpt lat="50.51725" lon="2.54406">
        <ele>32</ele>
        <time>2018-12-06T08:22:41Z</time>
      </trkpt>
      <trkpt lat="50.51757" lon="2.54457">
        <ele>33</ele>
        <time>2018-12-06T08:23:41Z</time>
      </trkpt>
      <trkpt lat="50.51768" lon="2.54482">
        <ele>33</ele>
        <time>2018-12-06T08:24:41Z</time>
      </trkpt>
      <trkpt lat="50.5179" lon="2.54554">
        <ele>32</ele>
        <time>2018-12-06T08:25:41Z</time>
      </trkpt>
      <trkpt lat="50.51814" lon="2.54606">
        <ele>32</ele>
        <time>2018-12-06T08:26:41Z</time>
      </trkpt>
      <trkpt lat="50.5188" lon="2.54742">
        <ele>31</ele>
        <time>2018-12-06T08:27:41Z</time>
      </trkpt>
      <trkpt lat="50.51894" lon="2.54779">
        <ele>31</ele>
        <time>2018-12-06T08:28:41Z</time>
      </trkpt>
      <trkpt lat="50.5196" lon="2.54881">
        <ele>31</ele>
        <time>2018-12-06T08:29:41Z</time>
      </trkpt>
      <trkpt lat="50.52002" lon="2.54968">
        <ele>31</ele>
        <time>2018-12-06T08:30:41Z</time>
      </trkpt>
      <trkpt lat="50.5205" lon="2.55056">
        <ele>31</ele>
        <time>2018-12-06T08:31:41Z</time>
      </trkpt>
      <trkpt lat="50.52119" lon="2.55156">
        <ele>30</ele>
        <time>2018-12-06T08:32:41Z</time>
      </trkpt>
      <trkpt lat="50.52146" lon="2.55199">
        <ele>30</ele>
        <time>2018-12-06T08:33:41Z</time>
      </trkpt>
      <trkpt lat="50.52366" lon="2.55613">
        <ele>28</ele>
        <time>2018-12-06T08:34:41Z</time>
      </trkpt>
      <trkpt lat="50.52392" lon="2.55654">
        <ele>29</ele>
        <time>2018-12-06T08:35:41Z</time>
      </trkpt>
      <trkpt lat="50.52517" lon="2.55802">
        <ele>28</ele>
        <time>2018-12-06T08:36:41Z</time>
      </trkpt>
      <trkpt lat="50.52555" lon="2.55842">
        <ele>28</ele>
        <time>2018-12-06T08:37:41Z</time>
      </trkpt>
      <trkpt lat="50.52615" lon="2.559">
        <ele>26</ele>
        <time>2018-12-06T08:38:41Z</time>
      </trkpt>
      <trkpt lat="50.52728" lon="2.5604">
        <ele>28</ele>
        <time>2018-12-06T08:39:41Z</time>
      </trkpt>
      <trkpt lat="50.52776" lon="2.56097">
        <ele>29</ele>
        <time>2018-12-06T08:40:41Z</time>
      </trkpt>
      <trkpt lat="50.52816" lon="2.56154">
        <ele>28</ele>
        <time>2018-12-06T08:41:41Z</time>
      </trkpt>
      <trkpt lat="50.5287" lon="2.5622">
        <ele>26</ele>
        <time>2018-12-06T08:42:41Z</time>
      </trkpt>
      <trkpt lat="50.53039" lon="2.56413">
        <ele>28</ele>
        <time>2018-12-06T08:43:41Z</time>
      </trkpt>
      <trkpt lat="50.53067" lon="2.56437">
        <ele>28</ele>
        <time>2018-12-06T08:44:41Z</time>
      </trkpt>
      <trkpt lat="50.531" lon="2.56451">
        <ele>28</ele>
        <time>2018-12-06T08:45:41Z</time>
      </trkpt>
      <trkpt lat="50.53138" lon="2.56459">
        <ele>28</ele>
        <time>2018-12-06T08:46:41Z</time>
      </trkpt>
      <trkpt lat="50.53368" lon="2.56466">
        <ele>33</ele>
        <time>2018-12-06T08:47:41Z</time>
      </trkpt>
      <trkpt lat="50.53368" lon="2.56466">
        <ele>33</ele>
        <time>2018-12-06T08:48:41Z</time>
      </trkpt>
      <trkpt lat="50.53638" lon="2.5647">
        <ele>38</ele>
        <time>2018-12-06T08:49:41Z</time>
      </trkpt>
      <trkpt lat="50.53646" lon="2.56471">
        <ele>38</ele>
        <time>2018-12-06T08:50:41Z</time>
      </trkpt>
      <trkpt lat="50.53647" lon="2.56477">
        <ele>37</ele>
        <time>2018-12-06T08:51:41Z</time>
      </trkpt>
      <trkpt lat="50.53651" lon="2.56483">
        <ele>37</ele>
        <time>2018-12-06T08:52:41Z</time>
      </trkpt>
      <trkpt lat="50.53654" lon="2.56484">
        <ele>37</ele>
        <time>2018-12-06T08:53:41Z</time>
      </trkpt>
      <trkpt lat="50.53659" lon="2.56481">
        <ele>37</ele>
        <time>2018-12-06T08:54:41Z</time>
      </trkpt>
      <trkpt lat="50.53662" lon="2.5647">
        <ele>37</ele>
        <time>2018-12-06T08:55:41Z</time>
      </trkpt>
      <trkpt lat="50.5367" lon="2.56476">
        <ele>37</ele>
        <time>2018-12-06T08:56:41Z</time>
      </trkpt>
      <trkpt lat="50.53697" lon="2.56505">
        <ele>36</ele>
        <time>2018-12-06T08:57:41Z</time>
      </trkpt>
      <trkpt lat="50.53812" lon="2.56639">
        <ele>31</ele>
        <time>2018-12-06T08:58:41Z</time>
      </trkpt>
      <trkpt lat="50.53857" lon="2.56723">
        <ele>30</ele>
        <time>2018-12-06T08:59:41Z</time>
      </trkpt>
      <trkpt lat="50.53869" lon="2.56737">
        <ele>30</ele>
        <time>2018-12-06T09:00:41Z</time>
      </trkpt>
      <trkpt lat="50.53958" lon="2.56953">
        <ele>28</ele>
        <time>2018-12-06T09:01:41Z</time>
      </trkpt>
      <trkpt lat="50.53975" lon="2.56973">
        <ele>27</ele>
        <time>2018-12-06T09:02:41Z</time>
      </trkpt>
      <trkpt lat="50.53982" lon="2.5697">
        <ele>27</ele>
        <time>2018-12-06T09:03:41Z</time>
      </trkpt>
      <trkpt lat="50.53986" lon="2.56983">
        <ele>27</ele>
        <time>2018-12-06T09:04:41Z</time>
      </trkpt>
      <trkpt lat="50.53995" lon="2.56993">
        <ele>26</ele>
        <time>2018-12-06T09:05:41Z</time>
      </trkpt>
      <trkpt lat="50.53987" lon="2.57008">
        <ele>26</ele>
        <time>2018-12-06T09:06:41Z</time>
      </trkpt>
      <trkpt lat="50.53981" lon="2.57053">
        <ele>27</ele>
        <time>2018-12-06T09:07:41Z</time>
      </trkpt>
      <trkpt lat="50.53967" lon="2.57041">
        <ele>27</ele>
        <time>2018-12-06T09:08:41Z</time>
      </trkpt>
      <trkpt lat="50.53967" lon="2.57041">
        <ele>27</ele>
        <time>2018-12-06T09:09:41Z</time>
      </trkpt>
      <trkpt lat="50.53981" lon="2.57053">
        <ele>27</ele>
        <time>2018-12-06T09:10:41Z</time>
      </trkpt>
      <trkpt lat="50.53963" lon="2.57129">
        <ele>27</ele>
        <time>2018-12-06T09:11:41Z</time>
      </trkpt>
      <trkpt lat="50.53925" lon="2.5721">
        <ele>27</ele>
        <time>2018-12-06T09:12:41Z</time>
      </trkpt>
      <trkpt lat="50.53891" lon="2.57289">
        <ele>25</ele>
        <time>2018-12-06T09:13:41Z</time>
      </trkpt>
      <trkpt lat="50.53843" lon="2.57434">
        <ele>23</ele>
        <time>2018-12-06T09:14:41Z</time>
      </trkpt>
      <trkpt lat="50.53811" lon="2.57615">
        <ele>26</ele>
        <time>2018-12-06T09:15:41Z</time>
      </trkpt>
      <trkpt lat="50.53808" lon="2.57615">
        <ele>26</ele>
        <time>2018-12-06T09:16:41Z</time>
      </trkpt>
      <trkpt lat="50.53808" lon="2.57615">
        <ele>26</ele>
        <time>2018-12-06T09:17:41Z</time>
      </trkpt>
      <trkpt lat="50.53811" lon="2.57615">
        <ele>26</ele>
        <time>2018-12-06T09:18:41Z</time>
      </trkpt>
      <trkpt lat="50.53805" lon="2.57656">
        <ele>27</ele>
        <time>2018-12-06T09:19:41Z</time>
      </trkpt>
      <trkpt lat="50.53795" lon="2.57752">
        <ele>30</ele>
        <time>2018-12-06T09:20:41Z</time>
      </trkpt>
      <trkpt lat="50.53902" lon="2.57749">
        <ele>28</ele>
        <time>2018-12-06T09:21:41Z</time>
      </trkpt>
      <trkpt lat="50.5397" lon="2.57751">
        <ele>27</ele>
        <time>2018-12-06T09:22:41Z</time>
      </trkpt>
      <trkpt lat="50.54005" lon="2.57762">
        <ele>27</ele>
        <time>2018-12-06T09:23:41Z</time>
      </trkpt>
      <trkpt lat="50.54011" lon="2.57771">
        <ele>27</ele>
        <time>2018-12-06T09:24:41Z</time>
      </trkpt>
      <trkpt lat="50.54023" lon="2.57778">
        <ele>27</ele>
        <time>2018-12-06T09:25:41Z</time>
      </trkpt>
      <trkpt lat="50.54041" lon="2.57803">
        <ele>27</ele>
        <time>2018-12-06T09:26:41Z</time>
      </trkpt>
      <trkpt lat="50.54111" lon="2.57912">
        <ele>25</ele>
        <time>2018-12-06T09:27:41Z</time>
      </trkpt>
      <trkpt lat="50.54178" lon="2.58006">
        <ele>24</ele>
        <time>2018-12-06T09:28:41Z</time>
      </trkpt>
      <trkpt lat="50.54217" lon="2.58047">
        <ele>23</ele>
        <time>2018-12-06T09:29:41Z</time>
      </trkpt>
      <trkpt lat="50.54291" lon="2.5811">
        <ele>22</ele>
        <time>2018-12-06T09:30:41Z</time>
      </trkpt>
      <trkpt lat="50.54328" lon="2.58149">
        <ele>22</ele>
        <time>2018-12-06T09:31:41Z</time>
      </trkpt>
      <trkpt lat="50.54378" lon="2.58212">
        <ele>22</ele>
        <time>2018-12-06T09:32:41Z</time>
      </trkpt>
      <trkpt lat="50.54584" lon="2.58411">
        <ele>23</ele>
        <time>2018-12-06T09:33:41Z</time>
      </trkpt>
      <trkpt lat="50.54591" lon="2.58417">
        <ele>23</ele>
        <time>2018-12-06T09:34:41Z</time>
      </trkpt>
      <trkpt lat="50.54636" lon="2.58462">
        <ele>25</ele>
        <time>2018-12-06T09:35:41Z</time>
      </trkpt>
      <trkpt lat="50.5473" lon="2.58603">
        <ele>25</ele>
        <time>2018-12-06T09:36:41Z</time>
      </trkpt>
      <trkpt lat="50.54778" lon="2.58728">
        <ele>24</ele>
        <time>2018-12-06T09:37:41Z</time>
      </trkpt>
      <trkpt lat="50.54879" lon="2.58976">
        <ele>21</ele>
        <time>2018-12-06T09:38:41Z</time>
      </trkpt>
      <trkpt lat="50.54912" lon="2.59037">
        <ele>20</ele>
        <time>2018-12-06T09:39:41Z</time>
      </trkpt>
      <trkpt lat="50.5494" lon="2.59071">
        <ele>20</ele>
        <time>2018-12-06T09:40:41Z</time>
      </trkpt>
      <trkpt lat="50.54959" lon="2.59089">
        <ele>20</ele>
        <time>2018-12-06T09:41:41Z</time>
      </trkpt>
      <trkpt lat="50.54984" lon="2.59102">
        <ele>20</ele>
        <time>2018-12-06T09:42:41Z</time>
      </trkpt>
      <trkpt lat="50.55013" lon="2.59112">
        <ele>20</ele>
        <time>2018-12-06T09:43:41Z</time>
      </trkpt>
      <trkpt lat="50.55061" lon="2.59119">
        <ele>19</ele>
        <time>2018-12-06T09:44:41Z</time>
      </trkpt>
      <trkpt lat="50.55126" lon="2.59111">
        <ele>19</ele>
        <time>2018-12-06T09:45:41Z</time>
      </trkpt>
      <trkpt lat="50.55158" lon="2.59123">
        <ele>20</ele>
        <time>2018-12-06T09:46:41Z</time>
      </trkpt>
      <trkpt lat="50.55194" lon="2.59144">
        <ele>20</ele>
        <time>2018-12-06T09:47:41Z</time>
      </trkpt>
      <trkpt lat="50.5523" lon="2.59162">
        <ele>20</ele>
        <time>2018-12-06T09:48:41Z</time>
      </trkpt>
      <trkpt lat="50.55276" lon="2.59178">
        <ele>20</ele>
        <time>2018-12-06T09:49:41Z</time>
      </trkpt>
      <trkpt lat="50.55406" lon="2.59241">
        <ele>19</ele>
        <time>2018-12-06T09:50:41Z</time>
      </trkpt>
      <trkpt lat="50.55443" lon="2.59255">
        <ele>20</ele>
        <time>2018-12-06T09:51:41Z</time>
      </trkpt>
      <trkpt lat="50.55468" lon="2.59261">
        <ele>20</ele>
        <time>2018-12-06T09:52:41Z</time>
      </trkpt>
      <trkpt lat="50.55493" lon="2.59264">
        <ele>21</ele>
        <time>2018-12-06T09:53:41Z</time>
      </trkpt>
      <trkpt lat="50.55556" lon="2.59266">
        <ele>20</ele>
        <time>2018-12-06T09:54:41Z</time>
      </trkpt>
      <trkpt lat="50.55691" lon="2.59303">
        <ele>22</ele>
        <time>2018-12-06T09:55:41Z</time>
      </trkpt>
      <trkpt lat="50.55786" lon="2.59339">
        <ele>22</ele>
        <time>2018-12-06T09:56:41Z</time>
      </trkpt>
      <trkpt lat="50.55847" lon="2.59368">
        <ele>22</ele>
        <time>2018-12-06T09:57:41Z</time>
      </trkpt>
      <trkpt lat="50.55868" lon="2.59381">
        <ele>22</ele>
        <time>2018-12-06T09:58:41Z</time>
      </trkpt>
      <trkpt lat="50.55868" lon="2.59401">
        <ele>22</ele>
        <time>2018-12-06T09:59:41Z</time>
      </trkpt>
      <trkpt lat="50.55871" lon="2.59418">
        <ele>22</ele>
        <time>2018-12-06T10:00:41Z</time>
      </trkpt>
      <trkpt lat="50.56021" lon="2.5981">
        <ele>23</ele>
        <time>2018-12-06T10:01:41Z</time>
      </trkpt>
      <trkpt lat="50.56061" lon="2.59954">
        <ele>26</ele>
        <time>2018-12-06T10:02:41Z</time>
      </trkpt>
      <trkpt lat="50.56087" lon="2.60019">
        <ele>26</ele>
        <time>2018-12-06T10:03:41Z</time>
      </trkpt>
      <trkpt lat="50.56125" lon="2.60097">
        <ele>26</ele>
        <time>2018-12-06T10:04:41Z</time>
      </trkpt>
      <trkpt lat="50.56176" lon="2.60234">
        <ele>28</ele>
        <time>2018-12-06T10:05:41Z</time>
      </trkpt>
      <trkpt lat="50.56187" lon="2.60252">
        <ele>29</ele>
        <time>2018-12-06T10:06:41Z</time>
      </trkpt>
      <trkpt lat="50.56198" lon="2.60266">
        <ele>29</ele>
        <time>2018-12-06T10:07:41Z</time>
      </trkpt>
      <trkpt lat="50.5622" lon="2.60287">
        <ele>30</ele>
        <time>2018-12-06T10:08:41Z</time>
      </trkpt>
      <trkpt lat="50.56232" lon="2.60318">
        <ele>31</ele>
        <time>2018-12-06T10:09:41Z</time>
      </trkpt>
      <trkpt lat="50.56239" lon="2.60345">
        <ele>32</ele>
        <time>2018-12-06T10:10:41Z</time>
      </trkpt>
      <trkpt lat="50.56276" lon="2.60372">
        <ele>34</ele>
        <time>2018-12-06T10:11:41Z</time>
      </trkpt>
      <trkpt lat="50.56297" lon="2.60394">
        <ele>36</ele>
        <time>2018-12-06T10:12:41Z</time>
      </trkpt>
      <trkpt lat="50.56369" lon="2.6043">
        <ele>37</ele>
        <time>2018-12-06T10:13:41Z</time>
      </trkpt>
      <trkpt lat="50.56401" lon="2.60468">
        <ele>37</ele>
        <time>2018-12-06T10:14:41Z</time>
      </trkpt>
      <trkpt lat="50.56422" lon="2.60485">
        <ele>37</ele>
        <time>2018-12-06T10:15:41Z</time>
      </trkpt>
      <trkpt lat="50.56435" lon="2.60502">
        <ele>37</ele>
        <time>2018-12-06T10:16:41Z</time>
      </trkpt>
      <trkpt lat="50.56462" lon="2.60563">
        <ele>38</ele>
        <time>2018-12-06T10:17:41Z</time>
      </trkpt>
      <trkpt lat="50.56481" lon="2.60591">
        <ele>38</ele>
        <time>2018-12-06T10:18:41Z</time>
      </trkpt>
      <trkpt lat="50.56568" lon="2.60681">
        <ele>40</ele>
        <time>2018-12-06T10:19:41Z</time>
      </trkpt>
      <trkpt lat="50.56583" lon="2.60707">
        <ele>41</ele>
        <time>2018-12-06T10:20:41Z</time>
      </trkpt>
      <trkpt lat="50.56591" lon="2.60731">
        <ele>41</ele>
        <time>2018-12-06T10:21:41Z</time>
      </trkpt>
      <trkpt lat="50.56595" lon="2.6075">
        <ele>42</ele>
        <time>2018-12-06T10:22:41Z</time>
      </trkpt>
      <trkpt lat="50.56595" lon="2.60773">
        <ele>42</ele>
        <time>2018-12-06T10:23:41Z</time>
      </trkpt>
      <trkpt lat="50.56591" lon="2.6081">
        <ele>43</ele>
        <time>2018-12-06T10:24:41Z</time>
      </trkpt>
      <trkpt lat="50.56567" lon="2.60918">
        <ele>43</ele>
        <time>2018-12-06T10:25:41Z</time>
      </trkpt>
      <trkpt lat="50.56547" lon="2.61036">
        <ele>44</ele>
        <time>2018-12-06T10:26:41Z</time>
      </trkpt>
      <trkpt lat="50.56549" lon="2.61179">
        <ele>45</ele>
        <time>2018-12-06T10:27:41Z</time>
      </trkpt>
      <trkpt lat="50.56523" lon="2.61398">
        <ele>45</ele>
        <time>2018-12-06T10:28:41Z</time>
      </trkpt>
      <trkpt lat="50.56516" lon="2.61443">
        <ele>45</ele>
        <time>2018-12-06T10:29:41Z</time>
      </trkpt>
      <trkpt lat="50.56511" lon="2.61807">
        <ele>46</ele>
        <time>2018-12-06T10:30:41Z</time>
      </trkpt>
      <trkpt lat="50.56503" lon="2.61875">
        <ele>46</ele>
        <time>2018-12-06T10:31:41Z</time>
      </trkpt>
      <trkpt lat="50.565" lon="2.61963">
        <ele>46</ele>
        <time>2018-12-06T10:32:41Z</time>
      </trkpt>
      <trkpt lat="50.5649" lon="2.62062">
        <ele>45</ele>
        <time>2018-12-06T10:33:41Z</time>
      </trkpt>
      <trkpt lat="50.56485" lon="2.62191">
        <ele>44</ele>
        <time>2018-12-06T10:34:41Z</time>
      </trkpt>
      <trkpt lat="50.56527" lon="2.62182">
        <ele>43</ele>
        <time>2018-12-06T10:35:41Z</time>
      </trkpt>
      <trkpt lat="50.56538" lon="2.62178">
        <ele>43</ele>
        <time>2018-12-06T10:36:41Z</time>
      </trkpt>
      <trkpt lat="50.56541" lon="2.62201">
        <ele>43</ele>
        <time>2018-12-06T10:37:41Z</time>
      </trkpt>
      <trkpt lat="50.56553" lon="2.622">
        <ele>43</ele>
        <time>2018-12-06T10:38:41Z</time>
      </trkpt>
      <trkpt lat="50.56557" lon="2.62204">
        <ele>43</ele>
        <time>2018-12-06T10:39:41Z</time>
      </trkpt>
    </trkseg>
  </trk>
</gpx>